<?xml version='1.0' encoding='UTF-8'?><gpx version="1.1" creator="JPX - https://github.com/jenetics/jpx" xmlns="http://www.topografix.com/GPX/1/1"><trk><trkseg><trkpt lat="43.200302" lon="13.2399053"><ele>272.0</ele><time>2026-05-02T09:40:10.89Z</time></trkpt><trkpt lat="43.2002974" lon="13.2400067"><ele>272.0</ele><time>2026-05-02T09:40:11.89Z</time></trkpt><trkpt lat="43.2002974" lon="13.2401347"><ele>272.0</ele><time>2026-05-02T09:40:12.89Z</time></trkpt><trkpt lat="43.2003009" lon="13.2402919"><ele>272.0</ele><time>2026-05-02T09:40:13.89Z</time></trkpt><trkpt lat="43.2002967" lon="13.2404646"><ele>272.0</ele><time>2026-05-02T09:40:14.889Z</time></trkpt><trkpt lat="43.2002839" lon="13.2406505"><ele>272.75</ele><time>2026-05-02T09:40:15.889Z</time></trkpt><trkpt lat="43.2002528" lon="13.2408155"><ele>273.5</ele><time>2026-05-02T09:40:16.89Z</time></trkpt><trkpt lat="43.2001992" lon="13.2409666"><ele>274.25</ele><time>2026-05-02T09:40:17.889Z</time></trkpt><trkpt lat="43.2001167" lon="13.2410995"><ele>275.0</ele><time>2026-05-02T09:40:18.89Z</time></trkpt><trkpt lat="43.2000225" lon="13.2411938"><ele>275.0</ele><time>2026-05-02T09:40:19.89Z</time></trkpt><trkpt lat="43.1999336" lon="13.241291"><ele>275.0</ele><time>2026-05-02T09:40:20.89Z</time></trkpt><trkpt lat="43.1998529" lon="13.241412"><ele>275.0</ele><time>2026-05-02T09:40:21.889Z</time></trkpt><trkpt lat="43.1997796" lon="13.2415636"><ele>275.0</ele><time>2026-05-02T09:40:22.89Z</time></trkpt><trkpt lat="43.1997094" lon="13.2417382"><ele>273.33333333333337</ele><time>2026-05-02T09:40:23.889Z</time></trkpt><trkpt lat="43.1996479" lon="13.2419376"><ele>271.6666666666667</ele><time>2026-05-02T09:40:24.889Z</time></trkpt><trkpt lat="43.1995869" lon="13.2421441"><ele>270.0</ele><time>2026-05-02T09:40:25.889Z</time></trkpt><trkpt lat="43.1995341" lon="13.2423504"><ele>270.0</ele><time>2026-05-02T09:40:26.89Z</time></trkpt><trkpt lat="43.1994841" lon="13.2425555"><ele>270.0</ele><time>2026-05-02T09:40:27.89Z</time></trkpt><trkpt lat="43.1994315" lon="13.2427507"><ele>270.0</ele><time>2026-05-02T09:40:28.89Z</time></trkpt><trkpt lat="43.1993834" lon="13.2429271"><ele>270.0</ele><time>2026-05-02T09:40:29.89Z</time></trkpt><trkpt lat="43.1993319" lon="13.2430998"><ele>270.5</ele><time>2026-05-02T09:40:30.889Z</time></trkpt><trkpt lat="43.1992799" lon="13.243269"><ele>271.0</ele><time>2026-05-02T09:40:31.89Z</time></trkpt><trkpt lat="43.1992226" lon="13.2434345"><ele>271.5</ele><time>2026-05-02T09:40:32.89Z</time></trkpt><trkpt lat="43.1991661" lon="13.2435897"><ele>272.0</ele><time>2026-05-02T09:40:33.889Z</time></trkpt><trkpt lat="43.1991215" lon="13.2437537"><ele>272.0</ele><time>2026-05-02T09:40:34.889Z</time></trkpt><trkpt lat="43.1990998" lon="13.2439375"><ele>272.0</ele><time>2026-05-02T09:40:35.89Z</time></trkpt><trkpt lat="43.1990908" lon="13.2441444"><ele>272.0</ele><time>2026-05-02T09:40:36.89Z</time></trkpt><trkpt lat="43.19909" lon="13.2443665"><ele>272.0</ele><time>2026-05-02T09:40:37.89Z</time></trkpt><trkpt lat="43.1990956" lon="13.2445808"><ele>271.75</ele><time>2026-05-02T09:40:38.889Z</time></trkpt><trkpt lat="43.1991" lon="13.2447887"><ele>271.5</ele><time>2026-05-02T09:40:39.89Z</time></trkpt><trkpt lat="43.1991001" lon="13.244989"><ele>271.25</ele><time>2026-05-02T09:40:40.889Z</time></trkpt><trkpt lat="43.1990983" lon="13.2451705"><ele>271.0</ele><time>2026-05-02T09:40:41.889Z</time></trkpt><trkpt lat="43.1990673" lon="13.2453727"><ele>270.6</ele><time>2026-05-02T09:40:42.889Z</time></trkpt><trkpt lat="43.1990538" lon="13.2455508"><ele>270.20000000000005</ele><time>2026-05-02T09:40:43.89Z</time></trkpt><trkpt lat="43.199037" lon="13.2457112"><ele>269.79999999999995</ele><time>2026-05-02T09:40:44.89Z</time></trkpt><trkpt lat="43.19902" lon="13.2458012"><ele>269.4</ele><time>2026-05-02T09:40:45.89Z</time></trkpt><trkpt lat="43.1989432" lon="13.245871"><ele>269.0</ele><time>2026-05-02T09:40:47.889Z</time></trkpt><trkpt lat="43.1988255" lon="13.2457626"><ele>265.5</ele><time>2026-05-02T09:40:49.889Z</time></trkpt><trkpt lat="43.1987491" lon="13.2456585"><ele>262.0</ele><time>2026-05-02T09:40:50.889Z</time></trkpt><trkpt lat="43.1986576" lon="13.2455337"><ele>258.5</ele><time>2026-05-02T09:40:51.889Z</time></trkpt><trkpt lat="43.1985582" lon="13.2454064"><ele>255.0</ele><time>2026-05-02T09:40:52.889Z</time></trkpt><trkpt lat="43.198438" lon="13.2452523"><ele>254.66666666666669</ele><time>2026-05-02T09:40:53.891Z</time></trkpt><trkpt lat="43.1983266" lon="13.2450927"><ele>254.33333333333334</ele><time>2026-05-02T09:40:54.89Z</time></trkpt><trkpt lat="43.1982192" lon="13.2449477"><ele>254.0</ele><time>2026-05-02T09:40:55.891Z</time></trkpt><trkpt lat="43.1981176" lon="13.2448088"><ele>254.0</ele><time>2026-05-02T09:40:56.891Z</time></trkpt><trkpt lat="43.1980255" lon="13.2446537"><ele>254.0</ele><time>2026-05-02T09:40:57.891Z</time></trkpt><trkpt lat="43.1979384" lon="13.2444788"><ele>254.0</ele><time>2026-05-02T09:40:58.891Z</time></trkpt><trkpt lat="43.1978601" lon="13.2442983"><ele>254.0</ele><time>2026-05-02T09:40:59.891Z</time></trkpt><trkpt lat="43.1977831" lon="13.2440751"><ele>254.0</ele><time>2026-05-02T09:41:00.891Z</time></trkpt><trkpt lat="43.1976828" lon="13.2438621"><ele>254.0</ele><time>2026-05-02T09:41:01.89Z</time></trkpt><trkpt lat="43.1976379" lon="13.2436245"><ele>255.66666666666669</ele><time>2026-05-02T09:41:02.89Z</time></trkpt><trkpt lat="43.1975313" lon="13.2434167"><ele>257.3333333333333</ele><time>2026-05-02T09:41:03.891Z</time></trkpt><trkpt lat="43.1974462" lon="13.2431818"><ele>259.0</ele><time>2026-05-02T09:41:04.891Z</time></trkpt><trkpt lat="43.1973729" lon="13.2429469"><ele>260.3333333333333</ele><time>2026-05-02T09:41:05.89Z</time></trkpt><trkpt lat="43.1972864" lon="13.2427071"><ele>261.6666666666667</ele><time>2026-05-02T09:41:06.891Z</time></trkpt><trkpt lat="43.1972193" lon="13.2424713"><ele>263.0</ele><time>2026-05-02T09:41:07.89Z</time></trkpt><trkpt lat="43.1971355" lon="13.242204"><ele>264.6666666666667</ele><time>2026-05-02T09:41:08.89Z</time></trkpt><trkpt lat="43.1970633" lon="13.241939"><ele>266.3333333333333</ele><time>2026-05-02T09:41:09.889Z</time></trkpt><trkpt lat="43.1969936" lon="13.2416644"><ele>268.0</ele><time>2026-05-02T09:41:10.89Z</time></trkpt><trkpt lat="43.1969257" lon="13.2413921"><ele>270.5</ele><time>2026-05-02T09:41:11.89Z</time></trkpt><trkpt lat="43.196852" lon="13.2410972"><ele>273.0</ele><time>2026-05-02T09:41:12.891Z</time></trkpt><trkpt lat="43.1967823" lon="13.2408036"><ele>276.6666666666667</ele><time>2026-05-02T09:41:13.891Z</time></trkpt><trkpt lat="43.1967229" lon="13.2405062"><ele>280.33333333333337</ele><time>2026-05-02T09:41:14.891Z</time></trkpt><trkpt lat="43.1966724" lon="13.2402415"><ele>284.0</ele><time>2026-05-02T09:41:15.89Z</time></trkpt><trkpt lat="43.1966213" lon="13.2400023"><ele>282.0</ele><time>2026-05-02T09:41:16.891Z</time></trkpt><trkpt lat="43.1965662" lon="13.2397769"><ele>280.0</ele><time>2026-05-02T09:41:17.89Z</time></trkpt><trkpt lat="43.1965143" lon="13.2395466"><ele>278.0</ele><time>2026-05-02T09:41:18.89Z</time></trkpt><trkpt lat="43.1964566" lon="13.2393232"><ele>278.0</ele><time>2026-05-02T09:41:19.89Z</time></trkpt><trkpt lat="43.1964011" lon="13.2390983"><ele>278.0</ele><time>2026-05-02T09:41:20.89Z</time></trkpt><trkpt lat="43.1963715" lon="13.238852"><ele>278.0</ele><time>2026-05-02T09:41:21.891Z</time></trkpt><trkpt lat="43.1963144" lon="13.2386177"><ele>282.6666666666667</ele><time>2026-05-02T09:41:22.891Z</time></trkpt><trkpt lat="43.1962578" lon="13.2383834"><ele>287.3333333333333</ele><time>2026-05-02T09:41:23.89Z</time></trkpt><trkpt lat="43.1962057" lon="13.2381309"><ele>292.0</ele><time>2026-05-02T09:41:24.891Z</time></trkpt><trkpt lat="43.19615" lon="13.2378838"><ele>295.66666666666663</ele><time>2026-05-02T09:41:25.891Z</time></trkpt><trkpt lat="43.1960929" lon="13.2376356"><ele>299.3333333333333</ele><time>2026-05-02T09:41:26.89Z</time></trkpt><trkpt lat="43.196028" lon="13.2374082"><ele>303.0</ele><time>2026-05-02T09:41:27.89Z</time></trkpt><trkpt lat="43.1959556" lon="13.2371944"><ele>304.5</ele><time>2026-05-02T09:41:28.891Z</time></trkpt><trkpt lat="43.1959016" lon="13.237006"><ele>306.0</ele><time>2026-05-02T09:41:29.89Z</time></trkpt><trkpt lat="43.1958491" lon="13.2368324"><ele>307.5</ele><time>2026-05-02T09:41:30.891Z</time></trkpt><trkpt lat="43.1958185" lon="13.2366527"><ele>309.0</ele><time>2026-05-02T09:41:31.89Z</time></trkpt><trkpt lat="43.1958058" lon="13.236466"><ele>311.0</ele><time>2026-05-02T09:41:32.89Z</time></trkpt><trkpt lat="43.1958" lon="13.2362672"><ele>313.0</ele><time>2026-05-02T09:41:33.891Z</time></trkpt><trkpt lat="43.1958088" lon="13.2360747"><ele>315.0</ele><time>2026-05-02T09:41:34.89Z</time></trkpt><trkpt lat="43.1958065" lon="13.2358777"><ele>317.0</ele><time>2026-05-02T09:41:35.891Z</time></trkpt><trkpt lat="43.1958029" lon="13.2356729"><ele>318.33333333333337</ele><time>2026-05-02T09:41:36.891Z</time></trkpt><trkpt lat="43.1958074" lon="13.2354676"><ele>319.6666666666667</ele><time>2026-05-02T09:41:37.891Z</time></trkpt><trkpt lat="43.1957863" lon="13.2352518"><ele>321.0</ele><time>2026-05-02T09:41:38.89Z</time></trkpt><trkpt lat="43.1957742" lon="13.2350303"><ele>322.3333333333333</ele><time>2026-05-02T09:41:39.89Z</time></trkpt><trkpt lat="43.195775" lon="13.234801"><ele>323.66666666666663</ele><time>2026-05-02T09:41:40.891Z</time></trkpt><trkpt lat="43.1957846" lon="13.2345867"><ele>325.0</ele><time>2026-05-02T09:41:41.89Z</time></trkpt><trkpt lat="43.1957833" lon="13.2343766"><ele>325.0</ele><time>2026-05-02T09:41:42.889Z</time></trkpt><trkpt lat="43.195789" lon="13.2341633"><ele>325.0</ele><time>2026-05-02T09:41:43.891Z</time></trkpt><trkpt lat="43.1957965" lon="13.2339556"><ele>325.0</ele><time>2026-05-02T09:41:44.891Z</time></trkpt><trkpt lat="43.1958027" lon="13.2337273"><ele>324.3333333333333</ele><time>2026-05-02T09:41:45.89Z</time></trkpt><trkpt lat="43.1958102" lon="13.2334858"><ele>323.6666666666667</ele><time>2026-05-02T09:41:46.891Z</time></trkpt><trkpt lat="43.195798" lon="13.2332349"><ele>323.0</ele><time>2026-05-02T09:41:47.89Z</time></trkpt><trkpt lat="43.195794" lon="13.2330071"><ele>320.6666666666667</ele><time>2026-05-02T09:41:48.89Z</time></trkpt><trkpt lat="43.1957893" lon="13.2327686"><ele>318.3333333333333</ele><time>2026-05-02T09:41:49.891Z</time></trkpt><trkpt lat="43.1957874" lon="13.232532"><ele>316.0</ele><time>2026-05-02T09:41:50.891Z</time></trkpt><trkpt lat="43.1957875" lon="13.232285"><ele>315.3333333333333</ele><time>2026-05-02T09:41:51.89Z</time></trkpt><trkpt lat="43.1957861" lon="13.2320535"><ele>314.6666666666667</ele><time>2026-05-02T09:41:52.89Z</time></trkpt><trkpt lat="43.1957887" lon="13.2318355"><ele>314.0</ele><time>2026-05-02T09:41:53.89Z</time></trkpt><trkpt lat="43.1957822" lon="13.2316313"><ele>315.25</ele><time>2026-05-02T09:41:54.89Z</time></trkpt><trkpt lat="43.1957731" lon="13.2314379"><ele>316.5</ele><time>2026-05-02T09:41:55.89Z</time></trkpt><trkpt lat="43.1957475" lon="13.231255"><ele>317.75</ele><time>2026-05-02T09:41:56.89Z</time></trkpt><trkpt lat="43.1957148" lon="13.2310886"><ele>319.0</ele><time>2026-05-02T09:41:57.89Z</time></trkpt><trkpt lat="43.1956588" lon="13.2309277"><ele>317.5</ele><time>2026-05-02T09:41:58.89Z</time></trkpt><trkpt lat="43.1955717" lon="13.2307674"><ele>316.0</ele><time>2026-05-02T09:41:59.891Z</time></trkpt><trkpt lat="43.1954878" lon="13.2306013"><ele>314.5</ele><time>2026-05-02T09:42:00.891Z</time></trkpt><trkpt lat="43.1954058" lon="13.2304255"><ele>313.0</ele><time>2026-05-02T09:42:01.891Z</time></trkpt><trkpt lat="43.1953288" lon="13.2302355"><ele>313.0</ele><time>2026-05-02T09:42:02.89Z</time></trkpt><trkpt lat="43.1952605" lon="13.2300435"><ele>313.0</ele><time>2026-05-02T09:42:03.889Z</time></trkpt><trkpt lat="43.195199" lon="13.2298581"><ele>313.0</ele><time>2026-05-02T09:42:04.891Z</time></trkpt><trkpt lat="43.1951462" lon="13.229684"><ele>313.0</ele><time>2026-05-02T09:42:05.89Z</time></trkpt><trkpt lat="43.1950968" lon="13.2295073"><ele>313.75</ele><time>2026-05-02T09:42:06.889Z</time></trkpt><trkpt lat="43.1950662" lon="13.2293072"><ele>314.5</ele><time>2026-05-02T09:42:07.891Z</time></trkpt><trkpt lat="43.195038" lon="13.2291107"><ele>315.25</ele><time>2026-05-02T09:42:08.889Z</time></trkpt><trkpt lat="43.1950141" lon="13.2289036"><ele>316.0</ele><time>2026-05-02T09:42:09.891Z</time></trkpt><trkpt lat="43.1949838" lon="13.2286893"><ele>317.3333333333333</ele><time>2026-05-02T09:42:10.89Z</time></trkpt><trkpt lat="43.1949415" lon="13.2284701"><ele>318.6666666666667</ele><time>2026-05-02T09:42:11.89Z</time></trkpt><trkpt lat="43.1949044" lon="13.2282523"><ele>320.0</ele><time>2026-05-02T09:42:12.89Z</time></trkpt><trkpt lat="43.1948551" lon="13.2280289"><ele>318.0</ele><time>2026-05-02T09:42:13.891Z</time></trkpt><trkpt lat="43.1947971" lon="13.2277992"><ele>316.0</ele><time>2026-05-02T09:42:14.889Z</time></trkpt><trkpt lat="43.1947441" lon="13.2275654"><ele>314.0</ele><time>2026-05-02T09:42:15.891Z</time></trkpt><trkpt lat="43.1947126" lon="13.2273526"><ele>317.0</ele><time>2026-05-02T09:42:16.89Z</time></trkpt><trkpt lat="43.1946844" lon="13.2271436"><ele>320.0</ele><time>2026-05-02T09:42:17.891Z</time></trkpt><trkpt lat="43.1946824" lon="13.2269303"><ele>323.0</ele><time>2026-05-02T09:42:18.89Z</time></trkpt><trkpt lat="43.1946906" lon="13.2267167"><ele>323.0</ele><time>2026-05-02T09:42:19.89Z</time></trkpt><trkpt lat="43.1946925" lon="13.2264888"><ele>323.0</ele><time>2026-05-02T09:42:20.891Z</time></trkpt><trkpt lat="43.1946891" lon="13.2262645"><ele>323.0</ele><time>2026-05-02T09:42:21.89Z</time></trkpt><trkpt lat="43.1946667" lon="13.2260433"><ele>326.33333333333337</ele><time>2026-05-02T09:42:22.889Z</time></trkpt><trkpt lat="43.1946402" lon="13.2258269"><ele>329.6666666666667</ele><time>2026-05-02T09:42:23.89Z</time></trkpt><trkpt lat="43.1946024" lon="13.2256075"><ele>333.0</ele><time>2026-05-02T09:42:24.891Z</time></trkpt><trkpt lat="43.1945757" lon="13.2254158"><ele>335.75</ele><time>2026-05-02T09:42:25.89Z</time></trkpt><trkpt lat="43.1945542" lon="13.2252322"><ele>338.5</ele><time>2026-05-02T09:42:26.891Z</time></trkpt><trkpt lat="43.1945545" lon="13.2250494"><ele>341.25</ele><time>2026-05-02T09:42:27.89Z</time></trkpt><trkpt lat="43.1945822" lon="13.2248707"><ele>344.0</ele><time>2026-05-02T09:42:28.89Z</time></trkpt><trkpt lat="43.1946138" lon="13.2246892"><ele>348.0</ele><time>2026-05-02T09:42:29.891Z</time></trkpt><trkpt lat="43.1946721" lon="13.2245131"><ele>352.0</ele><time>2026-05-02T09:42:30.889Z</time></trkpt><trkpt lat="43.1947129" lon="13.2243236"><ele>356.0</ele><time>2026-05-02T09:42:31.89Z</time></trkpt><trkpt lat="43.1947417" lon="13.2241349"><ele>360.0</ele><time>2026-05-02T09:42:32.89Z</time></trkpt><trkpt lat="43.1947732" lon="13.2239359"><ele>363.25</ele><time>2026-05-02T09:42:33.889Z</time></trkpt><trkpt lat="43.1948065" lon="13.2237447"><ele>366.5</ele><time>2026-05-02T09:42:34.891Z</time></trkpt><trkpt lat="43.1948463" lon="13.2235674"><ele>369.75</ele><time>2026-05-02T09:42:35.891Z</time></trkpt><trkpt lat="43.1948959" lon="13.223385"><ele>373.0</ele><time>2026-05-02T09:42:36.889Z</time></trkpt><trkpt lat="43.1949494" lon="13.2232137"><ele>374.5</ele><time>2026-05-02T09:42:37.891Z</time></trkpt><trkpt lat="43.1950053" lon="13.2230278"><ele>376.0</ele><time>2026-05-02T09:42:38.891Z</time></trkpt><trkpt lat="43.1950382" lon="13.2228354"><ele>377.5</ele><time>2026-05-02T09:42:39.889Z</time></trkpt><trkpt lat="43.1950508" lon="13.2226215"><ele>379.0</ele><time>2026-05-02T09:42:40.891Z</time></trkpt><trkpt lat="43.1950593" lon="13.2224007"><ele>382.0</ele><time>2026-05-02T09:42:41.89Z</time></trkpt><trkpt lat="43.1950719" lon="13.222178"><ele>385.0</ele><time>2026-05-02T09:42:42.89Z</time></trkpt><trkpt lat="43.1951076" lon="13.2219668"><ele>388.0</ele><time>2026-05-02T09:42:43.891Z</time></trkpt><trkpt lat="43.1951469" lon="13.2217597"><ele>388.0</ele><time>2026-05-02T09:42:44.891Z</time></trkpt><trkpt lat="43.1952091" lon="13.221578"><ele>388.0</ele><time>2026-05-02T09:42:45.89Z</time></trkpt><trkpt lat="43.1952697" lon="13.2213979"><ele>388.0</ele><time>2026-05-02T09:42:46.89Z</time></trkpt><trkpt lat="43.1953101" lon="13.2212156"><ele>388.0</ele><time>2026-05-02T09:42:47.89Z</time></trkpt><trkpt lat="43.1953244" lon="13.2210023"><ele>390.33333333333337</ele><time>2026-05-02T09:42:48.89Z</time></trkpt><trkpt lat="43.1953164" lon="13.2207968"><ele>392.66666666666663</ele><time>2026-05-02T09:42:49.891Z</time></trkpt><trkpt lat="43.1952969" lon="13.2205851"><ele>395.0</ele><time>2026-05-02T09:42:50.89Z</time></trkpt><trkpt lat="43.195279" lon="13.220362"><ele>396.0</ele><time>2026-05-02T09:42:51.891Z</time></trkpt><trkpt lat="43.1952555" lon="13.2201399"><ele>397.0</ele><time>2026-05-02T09:42:52.891Z</time></trkpt><trkpt lat="43.1952269" lon="13.2199019"><ele>398.0</ele><time>2026-05-02T09:42:53.89Z</time></trkpt><trkpt lat="43.1951921" lon="13.2196494"><ele>400.3333333333333</ele><time>2026-05-02T09:42:54.891Z</time></trkpt><trkpt lat="43.1951705" lon="13.2194053"><ele>402.66666666666663</ele><time>2026-05-02T09:42:55.891Z</time></trkpt><trkpt lat="43.1951425" lon="13.2191608"><ele>405.0</ele><time>2026-05-02T09:42:56.891Z</time></trkpt><trkpt lat="43.1951163" lon="13.218913"><ele>407.0</ele><time>2026-05-02T09:42:57.89Z</time></trkpt><trkpt lat="43.1950976" lon="13.2186892"><ele>409.0</ele><time>2026-05-02T09:42:58.889Z</time></trkpt><trkpt lat="43.1950796" lon="13.2184923"><ele>411.0</ele><time>2026-05-02T09:42:59.89Z</time></trkpt><trkpt lat="43.1950608" lon="13.2182864"><ele>415.0</ele><time>2026-05-02T09:43:00.891Z</time></trkpt><trkpt lat="43.1950873" lon="13.2180877"><ele>419.0</ele><time>2026-05-02T09:43:01.89Z</time></trkpt><trkpt lat="43.1951404" lon="13.21789"><ele>423.0</ele><time>2026-05-02T09:43:02.891Z</time></trkpt><trkpt lat="43.1951997" lon="13.2176914"><ele>423.0</ele><time>2026-05-02T09:43:03.89Z</time></trkpt><trkpt lat="43.1952565" lon="13.2174854"><ele>423.0</ele><time>2026-05-02T09:43:04.891Z</time></trkpt><trkpt lat="43.1953171" lon="13.2172718"><ele>423.0</ele><time>2026-05-02T09:43:05.89Z</time></trkpt><trkpt lat="43.1953782" lon="13.2170556"><ele>426.0</ele><time>2026-05-02T09:43:06.89Z</time></trkpt><trkpt lat="43.1954408" lon="13.2168403"><ele>429.0</ele><time>2026-05-02T09:43:07.891Z</time></trkpt><trkpt lat="43.1955012" lon="13.2166207"><ele>432.0</ele><time>2026-05-02T09:43:08.89Z</time></trkpt><trkpt lat="43.1955639" lon="13.2164112"><ele>434.40000000000003</ele><time>2026-05-02T09:43:09.89Z</time></trkpt><trkpt lat="43.195609" lon="13.2162564"><ele>436.80000000000007</ele><time>2026-05-02T09:43:10.89Z</time></trkpt><trkpt lat="43.19564" lon="13.2161084"><ele>439.2</ele><time>2026-05-02T09:43:11.891Z</time></trkpt><trkpt lat="43.1956439" lon="13.2159673"><ele>441.6</ele><time>2026-05-02T09:43:12.892Z</time></trkpt><trkpt lat="43.1956239" lon="13.2158296"><ele>444.0</ele><time>2026-05-02T09:43:13.89Z</time></trkpt><trkpt lat="43.1955439" lon="13.2156865"><ele>446.25</ele><time>2026-05-02T09:43:14.891Z</time></trkpt><trkpt lat="43.1954674" lon="13.215538"><ele>448.5</ele><time>2026-05-02T09:43:15.891Z</time></trkpt><trkpt lat="43.1953905" lon="13.215376"><ele>450.75</ele><time>2026-05-02T09:43:16.891Z</time></trkpt><trkpt lat="43.1953098" lon="13.2152015"><ele>453.0</ele><time>2026-05-02T09:43:17.891Z</time></trkpt><trkpt lat="43.1952228" lon="13.2150207"><ele>453.0</ele><time>2026-05-02T09:43:18.891Z</time></trkpt><trkpt lat="43.1951378" lon="13.2148366"><ele>453.0</ele><time>2026-05-02T09:43:19.89Z</time></trkpt><trkpt lat="43.1950659" lon="13.2146384"><ele>453.0</ele><time>2026-05-02T09:43:20.891Z</time></trkpt><trkpt lat="43.1949919" lon="13.2144276"><ele>454.33333333333337</ele><time>2026-05-02T09:43:21.89Z</time></trkpt><trkpt lat="43.1949556" lon="13.2141962"><ele>455.6666666666667</ele><time>2026-05-02T09:43:22.89Z</time></trkpt><trkpt lat="43.1949214" lon="13.2139532"><ele>457.0</ele><time>2026-05-02T09:43:23.89Z</time></trkpt><trkpt lat="43.194868" lon="13.213721"><ele>461.33333333333337</ele><time>2026-05-02T09:43:24.89Z</time></trkpt><trkpt lat="43.1947985" lon="13.2134798"><ele>465.66666666666663</ele><time>2026-05-02T09:43:25.89Z</time></trkpt><trkpt lat="43.1947264" lon="13.2132458"><ele>470.0</ele><time>2026-05-02T09:43:26.891Z</time></trkpt><trkpt lat="43.1946511" lon="13.2130067"><ele>470.0</ele><time>2026-05-02T09:43:27.89Z</time></trkpt><trkpt lat="43.1945832" lon="13.212763"><ele>470.0</ele><time>2026-05-02T09:43:28.891Z</time></trkpt><trkpt lat="43.1945318" lon="13.2125265"><ele>470.0</ele><time>2026-05-02T09:43:29.891Z</time></trkpt><trkpt lat="43.1945019" lon="13.2122976"><ele>470.3333333333333</ele><time>2026-05-02T09:43:30.889Z</time></trkpt><trkpt lat="43.194464" lon="13.2120669"><ele>470.66666666666663</ele><time>2026-05-02T09:43:31.89Z</time></trkpt><trkpt lat="43.1944583" lon="13.211832"><ele>471.0</ele><time>2026-05-02T09:43:32.889Z</time></trkpt><trkpt lat="43.1944465" lon="13.2116034"><ele>472.0</ele><time>2026-05-02T09:43:33.89Z</time></trkpt><trkpt lat="43.194462" lon="13.2113931"><ele>473.0</ele><time>2026-05-02T09:43:34.891Z</time></trkpt><trkpt lat="43.1944956" lon="13.2111854"><ele>474.0</ele><time>2026-05-02T09:43:35.89Z</time></trkpt><trkpt lat="43.1945583" lon="13.2109627"><ele>474.0</ele><time>2026-05-02T09:43:36.891Z</time></trkpt><trkpt lat="43.1946452" lon="13.2107428"><ele>474.0</ele><time>2026-05-02T09:43:37.891Z</time></trkpt><trkpt lat="43.1947538" lon="13.2105302"><ele>474.0</ele><time>2026-05-02T09:43:38.889Z</time></trkpt><trkpt lat="43.1948811" lon="13.2103225"><ele>474.66666666666663</ele><time>2026-05-02T09:43:39.889Z</time></trkpt><trkpt lat="43.1950195" lon="13.2101595"><ele>475.3333333333333</ele><time>2026-05-02T09:43:40.889Z</time></trkpt><trkpt lat="43.1951536" lon="13.2099744"><ele>476.0</ele><time>2026-05-02T09:43:41.889Z</time></trkpt><trkpt lat="43.1952897" lon="13.2097792"><ele>477.66666666666663</ele><time>2026-05-02T09:43:42.891Z</time></trkpt><trkpt lat="43.1954378" lon="13.2095815"><ele>479.33333333333337</ele><time>2026-05-02T09:43:43.891Z</time></trkpt><trkpt lat="43.1955718" lon="13.2094074"><ele>481.0</ele><time>2026-05-02T09:43:44.89Z</time></trkpt><trkpt lat="43.1957037" lon="13.2092173"><ele>481.33333333333337</ele><time>2026-05-02T09:43:45.889Z</time></trkpt><trkpt lat="43.1958176" lon="13.2090245"><ele>481.66666666666663</ele><time>2026-05-02T09:43:46.891Z</time></trkpt><trkpt lat="43.1959002" lon="13.2088627"><ele>482.0</ele><time>2026-05-02T09:43:47.891Z</time></trkpt><trkpt lat="43.1959744" lon="13.2087006"><ele>482.66666666666663</ele><time>2026-05-02T09:43:48.89Z</time></trkpt><trkpt lat="43.1959996" lon="13.2084914"><ele>483.33333333333337</ele><time>2026-05-02T09:43:49.89Z</time></trkpt><trkpt lat="43.1960276" lon="13.208271"><ele>484.0</ele><time>2026-05-02T09:43:50.89Z</time></trkpt><trkpt lat="43.1960438" lon="13.2080578"><ele>481.6666666666667</ele><time>2026-05-02T09:43:51.891Z</time></trkpt><trkpt lat="43.1960598" lon="13.2078329"><ele>479.33333333333337</ele><time>2026-05-02T09:43:52.889Z</time></trkpt><trkpt lat="43.1960562" lon="13.207626"><ele>477.0</ele><time>2026-05-02T09:43:53.891Z</time></trkpt><trkpt lat="43.1960181" lon="13.2074213"><ele>475.33333333333337</ele><time>2026-05-02T09:43:54.89Z</time></trkpt><trkpt lat="43.1959749" lon="13.2072088"><ele>473.6666666666667</ele><time>2026-05-02T09:43:55.89Z</time></trkpt><trkpt lat="43.1959504" lon="13.2069964"><ele>472.0</ele><time>2026-05-02T09:43:56.89Z</time></trkpt><trkpt lat="43.1958859" lon="13.2068085"><ele>472.0</ele><time>2026-05-02T09:43:57.89Z</time></trkpt><trkpt lat="43.1958287" lon="13.2066432"><ele>472.00000000000006</ele><time>2026-05-02T09:43:58.89Z</time></trkpt><trkpt lat="43.1957729" lon="13.2065067"><ele>472.00000000000006</ele><time>2026-05-02T09:43:59.89Z</time></trkpt><trkpt lat="43.1957856" lon="13.2064061"><ele>472.0</ele><time>2026-05-02T09:44:00.891Z</time></trkpt><trkpt lat="43.1957585" lon="13.2062542"><ele>472.0</ele><time>2026-05-02T09:44:01.891Z</time></trkpt><trkpt lat="43.1957571" lon="13.2061124"><ele>470.25</ele><time>2026-05-02T09:44:02.89Z</time></trkpt><trkpt lat="43.1957811" lon="13.2059687"><ele>468.5</ele><time>2026-05-02T09:44:03.89Z</time></trkpt><trkpt lat="43.1958511" lon="13.2058361"><ele>466.75</ele><time>2026-05-02T09:44:04.889Z</time></trkpt><trkpt lat="43.1958874" lon="13.2056899"><ele>465.0</ele><time>2026-05-02T09:44:05.891Z</time></trkpt><trkpt lat="43.1958868" lon="13.2055281"><ele>465.0</ele><time>2026-05-02T09:44:06.89Z</time></trkpt><trkpt lat="43.1958766" lon="13.2053766"><ele>465.0</ele><time>2026-05-02T09:44:07.89Z</time></trkpt><trkpt lat="43.1958383" lon="13.2052555"><ele>465.0</ele><time>2026-05-02T09:44:08.891Z</time></trkpt><trkpt lat="43.1957494" lon="13.2051732"><ele>465.0</ele><time>2026-05-02T09:44:09.89Z</time></trkpt><trkpt lat="43.1956922" lon="13.2050726"><ele>465.0</ele><time>2026-05-02T09:44:10.89Z</time></trkpt><trkpt lat="43.1956271" lon="13.204934"><ele>458.5</ele><time>2026-05-02T09:44:11.891Z</time></trkpt><trkpt lat="43.1956001" lon="13.2047671"><ele>452.0</ele><time>2026-05-02T09:44:12.89Z</time></trkpt><trkpt lat="43.195587" lon="13.2045858"><ele>445.5</ele><time>2026-05-02T09:44:13.89Z</time></trkpt><trkpt lat="43.1955739" lon="13.2043917"><ele>439.0</ele><time>2026-05-02T09:44:14.891Z</time></trkpt><trkpt lat="43.1955468" lon="13.2041958"><ele>439.0</ele><time>2026-05-02T09:44:15.891Z</time></trkpt><trkpt lat="43.195523" lon="13.20401"><ele>439.0</ele><time>2026-05-02T09:44:16.891Z</time></trkpt><trkpt lat="43.195469" lon="13.2038357"><ele>439.0</ele><time>2026-05-02T09:44:17.891Z</time></trkpt><trkpt lat="43.1954066" lon="13.20368"><ele>439.0</ele><time>2026-05-02T09:44:18.89Z</time></trkpt><trkpt lat="43.1953606" lon="13.2035345"><ele>439.79999999999995</ele><time>2026-05-02T09:44:19.889Z</time></trkpt><trkpt lat="43.1953097" lon="13.2033764"><ele>440.59999999999997</ele><time>2026-05-02T09:44:20.89Z</time></trkpt><trkpt lat="43.1952733" lon="13.2032355"><ele>441.4</ele><time>2026-05-02T09:44:21.891Z</time></trkpt><trkpt lat="43.1952487" lon="13.2030909"><ele>442.2</ele><time>2026-05-02T09:44:22.89Z</time></trkpt><trkpt lat="43.1952247" lon="13.2029562"><ele>443.0</ele><time>2026-05-02T09:44:23.89Z</time></trkpt><trkpt lat="43.1952191" lon="13.2027817"><ele>443.0</ele><time>2026-05-02T09:44:24.891Z</time></trkpt><trkpt lat="43.1952298" lon="13.2026001"><ele>443.0</ele><time>2026-05-02T09:44:25.89Z</time></trkpt><trkpt lat="43.1952475" lon="13.2024103"><ele>443.0</ele><time>2026-05-02T09:44:26.891Z</time></trkpt><trkpt lat="43.1952826" lon="13.2022162"><ele>443.0</ele><time>2026-05-02T09:44:27.889Z</time></trkpt><trkpt lat="43.1953291" lon="13.202015"><ele>440.75</ele><time>2026-05-02T09:44:28.89Z</time></trkpt><trkpt lat="43.1953662" lon="13.2018216"><ele>438.5</ele><time>2026-05-02T09:44:29.891Z</time></trkpt><trkpt lat="43.1953989" lon="13.2016445"><ele>436.25</ele><time>2026-05-02T09:44:30.89Z</time></trkpt><trkpt lat="43.195431" lon="13.201496"><ele>434.0</ele><time>2026-05-02T09:44:31.89Z</time></trkpt><trkpt lat="43.1954502" lon="13.2013722"><ele>432.4</ele><time>2026-05-02T09:44:32.89Z</time></trkpt><trkpt lat="43.1954444" lon="13.2012481"><ele>430.79999999999995</ele><time>2026-05-02T09:44:33.889Z</time></trkpt><trkpt lat="43.1954134" lon="13.2011311"><ele>429.20000000000005</ele><time>2026-05-02T09:44:34.89Z</time></trkpt><trkpt lat="43.1953581" lon="13.201045"><ele>427.6</ele><time>2026-05-02T09:44:35.89Z</time></trkpt><trkpt lat="43.1952815" lon="13.2009828"><ele>426.0</ele><time>2026-05-02T09:44:36.89Z</time></trkpt><trkpt lat="43.1951855" lon="13.2009576"><ele>426.0</ele><time>2026-05-02T09:44:37.891Z</time></trkpt><trkpt lat="43.1950893" lon="13.2009559"><ele>426.0</ele><time>2026-05-02T09:44:38.891Z</time></trkpt><trkpt lat="43.195009" lon="13.2009582"><ele>426.0</ele><time>2026-05-02T09:44:39.89Z</time></trkpt><trkpt lat="43.1949405" lon="13.2009593"><ele>426.0</ele><time>2026-05-02T09:44:40.891Z</time></trkpt><trkpt lat="43.1948598" lon="13.200881"><ele>426.0</ele><time>2026-05-02T09:44:42.891Z</time></trkpt><trkpt lat="43.1948656" lon="13.2006879"><ele>425.0</ele><time>2026-05-02T09:44:44.89Z</time></trkpt><trkpt lat="43.1948709" lon="13.20055"><ele>424.0</ele><time>2026-05-02T09:44:45.891Z</time></trkpt><trkpt lat="43.1948646" lon="13.2003977"><ele>423.0</ele><time>2026-05-02T09:44:46.89Z</time></trkpt><trkpt lat="43.1948543" lon="13.2002503"><ele>422.0</ele><time>2026-05-02T09:44:47.89Z</time></trkpt><trkpt lat="43.1948399" lon="13.2001108"><ele>421.0</ele><time>2026-05-02T09:44:48.89Z</time></trkpt><trkpt lat="43.1948278" lon="13.1999934"><ele>421.00000000000006</ele><time>2026-05-02T09:44:49.89Z</time></trkpt><trkpt lat="43.1948199" lon="13.1999024"><ele>421.0</ele><time>2026-05-02T09:44:50.889Z</time></trkpt><trkpt lat="43.1948189" lon="13.1997961"><ele>421.0</ele><time>2026-05-02T09:44:52.889Z</time></trkpt><trkpt lat="43.1947164" lon="13.1997135"><ele>421.0</ele><time>2026-05-02T09:44:55.89Z</time></trkpt><trkpt lat="43.1946403" lon="13.199704"><ele>421.00000000000006</ele><time>2026-05-02T09:44:56.89Z</time></trkpt><trkpt lat="43.1945451" lon="13.1996954"><ele>421.0</ele><time>2026-05-02T09:44:57.891Z</time></trkpt><trkpt lat="43.1944375" lon="13.1996863"><ele>421.0</ele><time>2026-05-02T09:44:58.89Z</time></trkpt><trkpt lat="43.1943159" lon="13.1996843"><ele>421.0</ele><time>2026-05-02T09:44:59.891Z</time></trkpt><trkpt lat="43.1941773" lon="13.1996614"><ele>421.0</ele><time>2026-05-02T09:45:00.889Z</time></trkpt><trkpt lat="43.1940446" lon="13.1996107"><ele>421.0</ele><time>2026-05-02T09:45:01.89Z</time></trkpt><trkpt lat="43.1939254" lon="13.1995324"><ele>416.0</ele><time>2026-05-02T09:45:02.89Z</time></trkpt><trkpt lat="43.1938154" lon="13.1994119"><ele>411.0</ele><time>2026-05-02T09:45:03.89Z</time></trkpt><trkpt lat="43.1937177" lon="13.1992648"><ele>406.0</ele><time>2026-05-02T09:45:04.89Z</time></trkpt><trkpt lat="43.193641" lon="13.1990885"><ele>401.0</ele><time>2026-05-02T09:45:05.891Z</time></trkpt><trkpt lat="43.1935938" lon="13.1989019"><ele>401.0</ele><time>2026-05-02T09:45:06.891Z</time></trkpt><trkpt lat="43.1935592" lon="13.1987068"><ele>401.0</ele><time>2026-05-02T09:45:07.891Z</time></trkpt><trkpt lat="43.1935414" lon="13.1985272"><ele>401.0</ele><time>2026-05-02T09:45:08.89Z</time></trkpt><trkpt lat="43.193594" lon="13.1983752"><ele>401.0</ele><time>2026-05-02T09:45:09.89Z</time></trkpt><trkpt lat="43.1936706" lon="13.1982608"><ele>401.75</ele><time>2026-05-02T09:45:10.89Z</time></trkpt><trkpt lat="43.1937301" lon="13.1981312"><ele>402.5</ele><time>2026-05-02T09:45:11.891Z</time></trkpt><trkpt lat="43.1937602" lon="13.1979541"><ele>403.25</ele><time>2026-05-02T09:45:12.891Z</time></trkpt><trkpt lat="43.1937616" lon="13.1977762"><ele>404.0</ele><time>2026-05-02T09:45:13.89Z</time></trkpt><trkpt lat="43.1937568" lon="13.1976085"><ele>404.0</ele><time>2026-05-02T09:45:14.891Z</time></trkpt><trkpt lat="43.1937697" lon="13.1974457"><ele>404.0</ele><time>2026-05-02T09:45:15.89Z</time></trkpt><trkpt lat="43.1937884" lon="13.197295"><ele>404.0</ele><time>2026-05-02T09:45:16.89Z</time></trkpt><trkpt lat="43.1938181" lon="13.1971677"><ele>404.0</ele><time>2026-05-02T09:45:17.891Z</time></trkpt><trkpt lat="43.1938218" lon="13.1970441"><ele>404.0</ele><time>2026-05-02T09:45:18.89Z</time></trkpt><trkpt lat="43.1937897" lon="13.1969445"><ele>405.16666666666663</ele><time>2026-05-02T09:45:19.89Z</time></trkpt><trkpt lat="43.193745" lon="13.196862"><ele>406.3333333333333</ele><time>2026-05-02T09:45:20.89Z</time></trkpt><trkpt lat="43.1936489" lon="13.1968461"><ele>407.5</ele><time>2026-05-02T09:45:21.89Z</time></trkpt><trkpt lat="43.1935752" lon="13.1968297"><ele>408.66666666666663</ele><time>2026-05-02T09:45:22.891Z</time></trkpt><trkpt lat="43.1934996" lon="13.1968355"><ele>409.8333333333333</ele><time>2026-05-02T09:45:23.891Z</time></trkpt><trkpt lat="43.1934249" lon="13.1968902"><ele>411.0</ele><time>2026-05-02T09:45:24.89Z</time></trkpt><trkpt lat="43.1933393" lon="13.1969505"><ele>411.0</ele><time>2026-05-02T09:45:25.89Z</time></trkpt><trkpt lat="43.1932382" lon="13.1970248"><ele>411.0</ele><time>2026-05-02T09:45:26.891Z</time></trkpt><trkpt lat="43.1931328" lon="13.1971071"><ele>411.0</ele><time>2026-05-02T09:45:27.891Z</time></trkpt><trkpt lat="43.1930259" lon="13.1972035"><ele>411.0</ele><time>2026-05-02T09:45:28.891Z</time></trkpt><trkpt lat="43.19291" lon="13.197303"><ele>411.75</ele><time>2026-05-02T09:45:29.891Z</time></trkpt><trkpt lat="43.1928112" lon="13.1974121"><ele>412.5</ele><time>2026-05-02T09:45:30.891Z</time></trkpt><trkpt lat="43.1927286" lon="13.1975458"><ele>413.25</ele><time>2026-05-02T09:45:31.891Z</time></trkpt><trkpt lat="43.192658" lon="13.1976913"><ele>414.0</ele><time>2026-05-02T09:45:32.889Z</time></trkpt><trkpt lat="43.1925848" lon="13.197838"><ele>414.0</ele><time>2026-05-02T09:45:33.89Z</time></trkpt><trkpt lat="43.1925087" lon="13.1979908"><ele>414.0</ele><time>2026-05-02T09:45:34.891Z</time></trkpt><trkpt lat="43.1924212" lon="13.1981437"><ele>414.0</ele><time>2026-05-02T09:45:35.89Z</time></trkpt><trkpt lat="43.1923218" lon="13.1982985"><ele>414.0</ele><time>2026-05-02T09:45:36.891Z</time></trkpt><trkpt lat="43.1922208" lon="13.1984583"><ele>414.25</ele><time>2026-05-02T09:45:37.89Z</time></trkpt><trkpt lat="43.1921285" lon="13.1986231"><ele>414.5</ele><time>2026-05-02T09:45:38.891Z</time></trkpt><trkpt lat="43.1920529" lon="13.1987831"><ele>414.75</ele><time>2026-05-02T09:45:39.891Z</time></trkpt><trkpt lat="43.1919802" lon="13.1989318"><ele>415.0</ele><time>2026-05-02T09:45:40.891Z</time></trkpt><trkpt lat="43.1918736" lon="13.1990533"><ele>415.0</ele><time>2026-05-02T09:45:41.889Z</time></trkpt><trkpt lat="43.1917632" lon="13.1991661"><ele>415.0</ele><time>2026-05-02T09:45:42.889Z</time></trkpt><trkpt lat="43.191624" lon="13.1992695"><ele>415.0</ele><time>2026-05-02T09:45:43.89Z</time></trkpt><trkpt lat="43.1914942" lon="13.199361"><ele>415.0</ele><time>2026-05-02T09:45:44.89Z</time></trkpt><trkpt lat="43.1913487" lon="13.1994727"><ele>421.0</ele><time>2026-05-02T09:45:45.889Z</time></trkpt><trkpt lat="43.1912126" lon="13.1995816"><ele>427.0</ele><time>2026-05-02T09:45:46.89Z</time></trkpt><trkpt lat="43.1910713" lon="13.1996943"><ele>433.0</ele><time>2026-05-02T09:45:47.891Z</time></trkpt><trkpt lat="43.1909348" lon="13.1998209"><ele>431.0</ele><time>2026-05-02T09:45:48.889Z</time></trkpt><trkpt lat="43.1907936" lon="13.1999372"><ele>429.0</ele><time>2026-05-02T09:45:49.89Z</time></trkpt><trkpt lat="43.190656" lon="13.2000687"><ele>427.0</ele><time>2026-05-02T09:45:50.889Z</time></trkpt><trkpt lat="43.190527" lon="13.2002054"><ele>427.0</ele><time>2026-05-02T09:45:51.889Z</time></trkpt><trkpt lat="43.1903965" lon="13.2003306"><ele>427.0</ele><time>2026-05-02T09:45:52.891Z</time></trkpt><trkpt lat="43.1902851" lon="13.2004343"><ele>427.0</ele><time>2026-05-02T09:45:53.89Z</time></trkpt><trkpt lat="43.1901743" lon="13.2005438"><ele>427.0</ele><time>2026-05-02T09:45:54.891Z</time></trkpt><trkpt lat="43.1900592" lon="13.2006073"><ele>427.0</ele><time>2026-05-02T09:45:55.891Z</time></trkpt><trkpt lat="43.1899131" lon="13.2006479"><ele>427.0</ele><time>2026-05-02T09:45:56.889Z</time></trkpt><trkpt lat="43.1897654" lon="13.2006692"><ele>427.0</ele><time>2026-05-02T09:45:57.891Z</time></trkpt><trkpt lat="43.1896108" lon="13.2006812"><ele>423.0</ele><time>2026-05-02T09:45:58.89Z</time></trkpt><trkpt lat="43.1894488" lon="13.2007332"><ele>419.0</ele><time>2026-05-02T09:45:59.89Z</time></trkpt><trkpt lat="43.1892913" lon="13.2007957"><ele>415.0</ele><time>2026-05-02T09:46:00.89Z</time></trkpt><trkpt lat="43.1891366" lon="13.2008793"><ele>413.25</ele><time>2026-05-02T09:46:01.889Z</time></trkpt><trkpt lat="43.1889871" lon="13.2009445"><ele>411.5</ele><time>2026-05-02T09:46:02.89Z</time></trkpt><trkpt lat="43.1888531" lon="13.2009453"><ele>409.75</ele><time>2026-05-02T09:46:03.891Z</time></trkpt><trkpt lat="43.1887233" lon="13.2009487"><ele>408.0</ele><time>2026-05-02T09:46:04.891Z</time></trkpt><trkpt lat="43.1886226" lon="13.2009115"><ele>408.0</ele><time>2026-05-02T09:46:05.891Z</time></trkpt><trkpt lat="43.1885355" lon="13.2008206"><ele>408.0</ele><time>2026-05-02T09:46:06.891Z</time></trkpt><trkpt lat="43.1884639" lon="13.2006931"><ele>408.0</ele><time>2026-05-02T09:46:07.891Z</time></trkpt><trkpt lat="43.1884119" lon="13.2005395"><ele>408.0</ele><time>2026-05-02T09:46:08.89Z</time></trkpt><trkpt lat="43.1883914" lon="13.2003487"><ele>408.66666666666663</ele><time>2026-05-02T09:46:09.89Z</time></trkpt><trkpt lat="43.1883942" lon="13.2001537"><ele>409.3333333333333</ele><time>2026-05-02T09:46:10.89Z</time></trkpt><trkpt lat="43.1884165" lon="13.1999495"><ele>410.0</ele><time>2026-05-02T09:46:11.891Z</time></trkpt><trkpt lat="43.1884582" lon="13.1997387"><ele>410.25</ele><time>2026-05-02T09:46:12.89Z</time></trkpt><trkpt lat="43.1885164" lon="13.1995222"><ele>410.5</ele><time>2026-05-02T09:46:13.891Z</time></trkpt><trkpt lat="43.1885582" lon="13.199333"><ele>410.75</ele><time>2026-05-02T09:46:14.891Z</time></trkpt><trkpt lat="43.1886009" lon="13.1991594"><ele>411.0</ele><time>2026-05-02T09:46:15.891Z</time></trkpt><trkpt lat="43.1885972" lon="13.1990074"><ele>414.0</ele><time>2026-05-02T09:46:16.891Z</time></trkpt><trkpt lat="43.1885509" lon="13.1988809"><ele>417.0</ele><time>2026-05-02T09:46:17.89Z</time></trkpt><trkpt lat="43.1884609" lon="13.1987871"><ele>420.0</ele><time>2026-05-02T09:46:18.891Z</time></trkpt><trkpt lat="43.1883357" lon="13.1987297"><ele>423.0</ele><time>2026-05-02T09:46:19.89Z</time></trkpt><trkpt lat="43.1881907" lon="13.1987057"><ele>418.0</ele><time>2026-05-02T09:46:20.891Z</time></trkpt><trkpt lat="43.1880295" lon="13.1986904"><ele>413.0</ele><time>2026-05-02T09:46:21.891Z</time></trkpt><trkpt lat="43.1878796" lon="13.1986742"><ele>408.0</ele><time>2026-05-02T09:46:22.89Z</time></trkpt><trkpt lat="43.187756" lon="13.1986578"><ele>403.0</ele><time>2026-05-02T09:46:23.89Z</time></trkpt><trkpt lat="43.187642" lon="13.1986241"><ele>403.0</ele><time>2026-05-02T09:46:24.891Z</time></trkpt><trkpt lat="43.1875593" lon="13.1985525"><ele>403.0</ele><time>2026-05-02T09:46:25.891Z</time></trkpt><trkpt lat="43.1875058" lon="13.1984569"><ele>403.0</ele><time>2026-05-02T09:46:26.889Z</time></trkpt><trkpt lat="43.1875504" lon="13.1983029"><ele>403.0</ele><time>2026-05-02T09:46:27.889Z</time></trkpt><trkpt lat="43.187593" lon="13.1981385"><ele>403.0</ele><time>2026-05-02T09:46:28.891Z</time></trkpt><trkpt lat="43.1876364" lon="13.1979457"><ele>402.6666666666667</ele><time>2026-05-02T09:46:29.89Z</time></trkpt><trkpt lat="43.1876586" lon="13.1977237"><ele>402.33333333333337</ele><time>2026-05-02T09:46:30.889Z</time></trkpt><trkpt lat="43.1876727" lon="13.1974986"><ele>402.0</ele><time>2026-05-02T09:46:31.891Z</time></trkpt><trkpt lat="43.1876852" lon="13.1972804"><ele>402.0</ele><time>2026-05-02T09:46:32.89Z</time></trkpt><trkpt lat="43.1877073" lon="13.1970973"><ele>402.0</ele><time>2026-05-02T09:46:33.89Z</time></trkpt><trkpt lat="43.1877422" lon="13.1969002"><ele>402.0</ele><time>2026-05-02T09:46:34.89Z</time></trkpt><trkpt lat="43.1878003" lon="13.1966999"><ele>402.0</ele><time>2026-05-02T09:46:35.889Z</time></trkpt><trkpt lat="43.1878559" lon="13.1964962"><ele>399.33333333333337</ele><time>2026-05-02T09:46:36.89Z</time></trkpt><trkpt lat="43.187915" lon="13.1962866"><ele>396.6666666666667</ele><time>2026-05-02T09:46:37.89Z</time></trkpt><trkpt lat="43.1879728" lon="13.1960677"><ele>394.0</ele><time>2026-05-02T09:46:38.89Z</time></trkpt><trkpt lat="43.1880307" lon="13.1958439"><ele>393.6666666666667</ele><time>2026-05-02T09:46:39.891Z</time></trkpt><trkpt lat="43.1880883" lon="13.195617"><ele>393.33333333333337</ele><time>2026-05-02T09:46:40.89Z</time></trkpt><trkpt lat="43.1881378" lon="13.1953797"><ele>393.0</ele><time>2026-05-02T09:46:41.889Z</time></trkpt><trkpt lat="43.1881781" lon="13.1951407"><ele>397.33333333333337</ele><time>2026-05-02T09:46:42.89Z</time></trkpt><trkpt lat="43.1882183" lon="13.1949146"><ele>401.6666666666667</ele><time>2026-05-02T09:46:43.891Z</time></trkpt><trkpt lat="43.188255" lon="13.1947008"><ele>406.0</ele><time>2026-05-02T09:46:44.89Z</time></trkpt><trkpt lat="43.1882933" lon="13.1945024"><ele>406.0</ele><time>2026-05-02T09:46:45.889Z</time></trkpt><trkpt lat="43.1883205" lon="13.1943414"><ele>406.0</ele><time>2026-05-02T09:46:46.891Z</time></trkpt><trkpt lat="43.1883425" lon="13.1942087"><ele>406.0</ele><time>2026-05-02T09:46:47.89Z</time></trkpt><trkpt lat="43.1883607" lon="13.1940917"><ele>406.0</ele><time>2026-05-02T09:46:48.89Z</time></trkpt><trkpt lat="43.1884041" lon="13.1939805"><ele>406.0</ele><time>2026-05-02T09:46:50.89Z</time></trkpt><trkpt lat="43.1884991" lon="13.1940232"><ele>406.00000000000006</ele><time>2026-05-02T09:46:53.891Z</time></trkpt><trkpt lat="43.1885664" lon="13.1940319"><ele>406.0</ele><time>2026-05-02T09:46:54.891Z</time></trkpt><trkpt lat="43.1886463" lon="13.1940279"><ele>406.0</ele><time>2026-05-02T09:46:55.89Z</time></trkpt><trkpt lat="43.1887341" lon="13.1940043"><ele>406.0</ele><time>2026-05-02T09:46:56.891Z</time></trkpt><trkpt lat="43.1888284" lon="13.1939797"><ele>406.00000000000006</ele><time>2026-05-02T09:46:57.891Z</time></trkpt><trkpt lat="43.1889324" lon="13.1939578"><ele>406.0</ele><time>2026-05-02T09:46:58.891Z</time></trkpt><trkpt lat="43.1890372" lon="13.1939567"><ele>412.25</ele><time>2026-05-02T09:46:59.891Z</time></trkpt><trkpt lat="43.1891523" lon="13.1939469"><ele>418.5</ele><time>2026-05-02T09:47:00.89Z</time></trkpt><trkpt lat="43.1892788" lon="13.1939386"><ele>424.75</ele><time>2026-05-02T09:47:01.889Z</time></trkpt><trkpt lat="43.1894139" lon="13.1939306"><ele>431.0</ele><time>2026-05-02T09:47:02.89Z</time></trkpt><trkpt lat="43.1895479" lon="13.1939312"><ele>431.0</ele><time>2026-05-02T09:47:03.891Z</time></trkpt><trkpt lat="43.1896825" lon="13.1939443"><ele>431.0</ele><time>2026-05-02T09:47:04.891Z</time></trkpt><trkpt lat="43.1898177" lon="13.193962"><ele>431.0</ele><time>2026-05-02T09:47:05.889Z</time></trkpt><trkpt lat="43.1899457" lon="13.193977"><ele>431.0</ele><time>2026-05-02T09:47:06.89Z</time></trkpt><trkpt lat="43.1900733" lon="13.1940016"><ele>435.5</ele><time>2026-05-02T09:47:07.889Z</time></trkpt><trkpt lat="43.1902011" lon="13.1940429"><ele>440.0</ele><time>2026-05-02T09:47:08.89Z</time></trkpt><trkpt lat="43.1903205" lon="13.1940849"><ele>444.5</ele><time>2026-05-02T09:47:09.891Z</time></trkpt><trkpt lat="43.190436" lon="13.1941462"><ele>449.0</ele><time>2026-05-02T09:47:10.89Z</time></trkpt><trkpt lat="43.1905514" lon="13.1942083"><ele>448.99999999999994</ele><time>2026-05-02T09:47:11.89Z</time></trkpt><trkpt lat="43.1906502" lon="13.1942519"><ele>449.0</ele><time>2026-05-02T09:47:12.891Z</time></trkpt><trkpt lat="43.1907516" lon="13.1942671"><ele>449.0</ele><time>2026-05-02T09:47:13.891Z</time></trkpt><trkpt lat="43.1908538" lon="13.1942665"><ele>449.0</ele><time>2026-05-02T09:47:14.891Z</time></trkpt><trkpt lat="43.1909174" lon="13.1942671"><ele>448.99999999999994</ele><time>2026-05-02T09:47:15.891Z</time></trkpt><trkpt lat="43.1909162" lon="13.1941699"><ele>449.0</ele><time>2026-05-02T09:52:10.889Z</time></trkpt><trkpt lat="43.1909161" lon="13.1940154"><ele>452.79999999999995</ele><time>2026-05-02T09:52:12.891Z</time></trkpt><trkpt lat="43.1909284" lon="13.1938996"><ele>456.59999999999997</ele><time>2026-05-02T09:52:13.89Z</time></trkpt><trkpt lat="43.1909596" lon="13.1937773"><ele>460.4</ele><time>2026-05-02T09:52:14.891Z</time></trkpt><trkpt lat="43.1910005" lon="13.1936546"><ele>464.2</ele><time>2026-05-02T09:52:15.891Z</time></trkpt><trkpt lat="43.1910577" lon="13.1935208"><ele>468.0</ele><time>2026-05-02T09:52:16.89Z</time></trkpt><trkpt lat="43.1911103" lon="13.1933889"><ele>468.0</ele><time>2026-05-02T09:52:17.89Z</time></trkpt><trkpt lat="43.1911442" lon="13.1932736"><ele>467.99999999999994</ele><time>2026-05-02T09:52:18.891Z</time></trkpt><trkpt lat="43.1911672" lon="13.1931707"><ele>467.99999999999994</ele><time>2026-05-02T09:52:19.89Z</time></trkpt><trkpt lat="43.1911841" lon="13.193002"><ele>468.0</ele><time>2026-05-02T09:52:21.891Z</time></trkpt><trkpt lat="43.1911827" lon="13.1929007"><ele>468.0</ele><time>2026-05-02T09:52:22.89Z</time></trkpt><trkpt lat="43.1911885" lon="13.1927803"><ele>468.3333333333333</ele><time>2026-05-02T09:52:23.889Z</time></trkpt><trkpt lat="43.1911988" lon="13.1926605"><ele>468.66666666666663</ele><time>2026-05-02T09:52:24.89Z</time></trkpt><trkpt lat="43.1912034" lon="13.1925337"><ele>469.0</ele><time>2026-05-02T09:52:25.891Z</time></trkpt><trkpt lat="43.1912123" lon="13.1924027"><ele>469.3333333333333</ele><time>2026-05-02T09:52:26.89Z</time></trkpt><trkpt lat="43.1912224" lon="13.1922927"><ele>469.66666666666663</ele><time>2026-05-02T09:52:27.891Z</time></trkpt><trkpt lat="43.1912259" lon="13.1921842"><ele>470.0</ele><time>2026-05-02T09:52:28.891Z</time></trkpt><trkpt lat="43.1912353" lon="13.1920965"><ele>470.6</ele><time>2026-05-02T09:52:29.89Z</time></trkpt><trkpt lat="43.1912429" lon="13.1919807"><ele>471.2</ele><time>2026-05-02T09:54:23.891Z</time></trkpt><trkpt lat="43.1912717" lon="13.1918228"><ele>471.79999999999995</ele><time>2026-05-02T09:54:25.89Z</time></trkpt><trkpt lat="43.1912906" lon="13.1916786"><ele>472.4</ele><time>2026-05-02T09:54:26.89Z</time></trkpt><trkpt lat="43.1913033" lon="13.1915093"><ele>473.0</ele><time>2026-05-02T09:54:27.89Z</time></trkpt><trkpt lat="43.1913156" lon="13.1913209"><ele>476.0</ele><time>2026-05-02T09:54:28.891Z</time></trkpt><trkpt lat="43.1913281" lon="13.1911585"><ele>478.99999999999994</ele><time>2026-05-02T09:54:29.891Z</time></trkpt><trkpt lat="43.1913342" lon="13.191011"><ele>481.99999999999994</ele><time>2026-05-02T09:54:30.889Z</time></trkpt><trkpt lat="43.1913188" lon="13.1908734"><ele>485.0</ele><time>2026-05-02T09:54:31.891Z</time></trkpt><trkpt lat="43.1912801" lon="13.1907285"><ele>488.0</ele><time>2026-05-02T09:54:32.89Z</time></trkpt><trkpt lat="43.191232" lon="13.1905872"><ele>490.5</ele><time>2026-05-02T09:54:33.891Z</time></trkpt><trkpt lat="43.1911757" lon="13.1904473"><ele>493.0</ele><time>2026-05-02T09:54:34.89Z</time></trkpt><trkpt lat="43.1911198" lon="13.1902888"><ele>495.5</ele><time>2026-05-02T09:54:35.891Z</time></trkpt><trkpt lat="43.1910507" lon="13.1901232"><ele>498.0</ele><time>2026-05-02T09:54:36.891Z</time></trkpt><trkpt lat="43.1909867" lon="13.1899709"><ele>500.0</ele><time>2026-05-02T09:54:37.891Z</time></trkpt><trkpt lat="43.1909201" lon="13.1898171"><ele>502.0</ele><time>2026-05-02T09:54:38.891Z</time></trkpt><trkpt lat="43.1908573" lon="13.1896763"><ele>504.0</ele><time>2026-05-02T09:54:39.89Z</time></trkpt><trkpt lat="43.1907943" lon="13.1895389"><ele>506.0</ele><time>2026-05-02T09:54:40.89Z</time></trkpt><trkpt lat="43.1907414" lon="13.1894279"><ele>505.99999999999994</ele><time>2026-05-02T09:54:41.89Z</time></trkpt><trkpt lat="43.1906963" lon="13.1893219"><ele>506.0</ele><time>2026-05-02T09:54:42.891Z</time></trkpt><trkpt lat="43.1906733" lon="13.1892312"><ele>506.0</ele><time>2026-05-02T09:54:43.889Z</time></trkpt><trkpt lat="43.1906816" lon="13.1891182"><ele>506.0</ele><time>2026-05-02T09:54:45.891Z</time></trkpt><trkpt lat="43.1907508" lon="13.1890333"><ele>505.99999999999994</ele><time>2026-05-02T09:54:47.889Z</time></trkpt><trkpt lat="43.1908192" lon="13.1889146"><ele>506.0</ele><time>2026-05-02T09:54:49.89Z</time></trkpt><trkpt lat="43.1908409" lon="13.1887435"><ele>506.49999999999994</ele><time>2026-05-02T09:54:51.89Z</time></trkpt><trkpt lat="43.1908388" lon="13.1886451"><ele>507.0</ele><time>2026-05-02T09:54:52.891Z</time></trkpt><trkpt lat="43.1908302" lon="13.1885304"><ele>507.5</ele><time>2026-05-02T09:54:53.891Z</time></trkpt><trkpt lat="43.1908147" lon="13.1884223"><ele>508.0</ele><time>2026-05-02T09:54:54.89Z</time></trkpt><trkpt lat="43.1908038" lon="13.1883306"><ele>508.49999999999994</ele><time>2026-05-02T09:54:55.891Z</time></trkpt><trkpt lat="43.1907756" lon="13.1882528"><ele>509.0</ele><time>2026-05-02T09:54:56.891Z</time></trkpt><trkpt lat="43.1907602" lon="13.1881393"><ele>510.4</ele><time>2026-05-02T09:54:58.891Z</time></trkpt><trkpt lat="43.1908421" lon="13.1880114"><ele>511.79999999999995</ele><time>2026-05-02T09:55:00.891Z</time></trkpt><trkpt lat="43.1909041" lon="13.1879469"><ele>513.2</ele><time>2026-05-02T09:55:01.89Z</time></trkpt><trkpt lat="43.1909822" lon="13.1878818"><ele>514.6</ele><time>2026-05-02T09:55:02.891Z</time></trkpt><trkpt lat="43.1910634" lon="13.1878225"><ele>516.0</ele><time>2026-05-02T09:55:03.891Z</time></trkpt><trkpt lat="43.191132" lon="13.1877621"><ele>516.0</ele><time>2026-05-02T09:55:04.891Z</time></trkpt><trkpt lat="43.1911927" lon="13.1877275"><ele>516.0</ele><time>2026-05-02T09:55:05.889Z</time></trkpt><trkpt lat="43.191332" lon="13.1877343"><ele>516.0</ele><time>2026-05-02T09:55:07.89Z</time></trkpt><trkpt lat="43.191419" lon="13.1877607"><ele>516.0</ele><time>2026-05-02T09:55:08.891Z</time></trkpt><trkpt lat="43.1915097" lon="13.1877999"><ele>516.0</ele><time>2026-05-02T09:55:09.891Z</time></trkpt><trkpt lat="43.1916083" lon="13.1878509"><ele>517.0</ele><time>2026-05-02T09:55:10.89Z</time></trkpt><trkpt lat="43.1917107" lon="13.1879058"><ele>518.0</ele><time>2026-05-02T09:55:11.891Z</time></trkpt><trkpt lat="43.1918099" lon="13.187968"><ele>519.0</ele><time>2026-05-02T09:55:12.891Z</time></trkpt><trkpt lat="43.1919067" lon="13.1880333"><ele>520.0</ele><time>2026-05-02T09:55:13.891Z</time></trkpt><trkpt lat="43.1919874" lon="13.1880999"><ele>521.0</ele><time>2026-05-02T09:55:14.891Z</time></trkpt><trkpt lat="43.1920608" lon="13.1881755"><ele>518.6666666666666</ele><time>2026-05-02T09:55:15.891Z</time></trkpt><trkpt lat="43.1921218" lon="13.1882667"><ele>516.3333333333333</ele><time>2026-05-02T09:55:16.891Z</time></trkpt><trkpt lat="43.1921783" lon="13.1883573"><ele>514.0</ele><time>2026-05-02T09:55:17.89Z</time></trkpt><trkpt lat="43.1922418" lon="13.1884159"><ele>511.66666666666663</ele><time>2026-05-02T09:55:18.891Z</time></trkpt><trkpt lat="43.1923048" lon="13.1884365"><ele>509.3333333333333</ele><time>2026-05-02T09:55:19.89Z</time></trkpt><trkpt lat="43.1923914" lon="13.1884513"><ele>507.0</ele><time>2026-05-02T09:55:20.891Z</time></trkpt><trkpt lat="43.1924997" lon="13.1884763"><ele>507.0</ele><time>2026-05-02T09:55:21.891Z</time></trkpt><trkpt lat="43.1925946" lon="13.1885231"><ele>507.00000000000006</ele><time>2026-05-02T09:55:22.891Z</time></trkpt><trkpt lat="43.1926779" lon="13.1885888"><ele>507.00000000000006</ele><time>2026-05-02T09:55:23.89Z</time></trkpt><trkpt lat="43.1927492" lon="13.1886544"><ele>507.0</ele><time>2026-05-02T09:55:24.891Z</time></trkpt><trkpt lat="43.1928092" lon="13.1886992"><ele>507.0</ele><time>2026-05-02T09:55:25.891Z</time></trkpt><trkpt lat="43.1929232" lon="13.188728"><ele>507.0</ele><time>2026-05-02T09:55:27.89Z</time></trkpt><trkpt lat="43.1930275" lon="13.1887255"><ele>507.0</ele><time>2026-05-02T09:55:29.89Z</time></trkpt><trkpt lat="43.193093" lon="13.1887311"><ele>507.0</ele><time>2026-05-02T09:55:30.891Z</time></trkpt><trkpt lat="43.1931605" lon="13.188742"><ele>507.0</ele><time>2026-05-02T09:55:31.891Z</time></trkpt><trkpt lat="43.1932393" lon="13.1887532"><ele>507.0</ele><time>2026-05-02T09:55:32.889Z</time></trkpt><trkpt lat="43.1933308" lon="13.1887497"><ele>507.0</ele><time>2026-05-02T09:55:33.891Z</time></trkpt><trkpt lat="43.1934189" lon="13.188748"><ele>506.1666666666667</ele><time>2026-05-02T09:55:34.889Z</time></trkpt><trkpt lat="43.1935035" lon="13.1887496"><ele>505.33333333333337</ele><time>2026-05-02T09:55:35.891Z</time></trkpt><trkpt lat="43.1936093" lon="13.1887275"><ele>504.5</ele><time>2026-05-02T09:55:36.89Z</time></trkpt><trkpt lat="43.1936978" lon="13.1887147"><ele>503.6666666666667</ele><time>2026-05-02T09:55:37.89Z</time></trkpt><trkpt lat="43.1937629" lon="13.1887062"><ele>502.83333333333337</ele><time>2026-05-02T09:55:38.89Z</time></trkpt><trkpt lat="43.1938336" lon="13.1886491"><ele>502.0</ele><time>2026-05-02T09:55:40.891Z</time></trkpt><trkpt lat="43.1938892" lon="13.1885403"><ele>502.00000000000006</ele><time>2026-05-02T09:55:42.89Z</time></trkpt><trkpt lat="43.1939464" lon="13.1884912"><ele>502.0</ele><time>2026-05-02T09:55:43.891Z</time></trkpt><trkpt lat="43.1940166" lon="13.1884371"><ele>502.0</ele><time>2026-05-02T09:55:44.89Z</time></trkpt><trkpt lat="43.194088" lon="13.1883862"><ele>502.0</ele><time>2026-05-02T09:55:45.89Z</time></trkpt><trkpt lat="43.1941678" lon="13.1883395"><ele>502.00000000000006</ele><time>2026-05-02T09:55:46.89Z</time></trkpt><trkpt lat="43.194287" lon="13.1882678"><ele>502.0</ele><time>2026-05-02T09:55:48.889Z</time></trkpt><trkpt lat="43.1943716" lon="13.1882169"><ele>501.83333333333337</ele><time>2026-05-02T09:55:49.89Z</time></trkpt><trkpt lat="43.1944557" lon="13.1881811"><ele>501.6666666666667</ele><time>2026-05-02T09:55:50.89Z</time></trkpt><trkpt lat="43.1945316" lon="13.1881684"><ele>501.5</ele><time>2026-05-02T09:55:51.889Z</time></trkpt><trkpt lat="43.1946054" lon="13.1881877"><ele>501.33333333333337</ele><time>2026-05-02T09:55:52.889Z</time></trkpt><trkpt lat="43.1946933" lon="13.1882169"><ele>501.1666666666667</ele><time>2026-05-02T09:55:53.89Z</time></trkpt><trkpt lat="43.1947799" lon="13.1882518"><ele>501.0</ele><time>2026-05-02T09:55:54.889Z</time></trkpt><trkpt lat="43.1948488" lon="13.1882926"><ele>500.42857142857144</ele><time>2026-05-02T09:55:55.89Z</time></trkpt><trkpt lat="43.1949095" lon="13.1883408"><ele>499.85714285714283</ele><time>2026-05-02T09:55:56.891Z</time></trkpt><trkpt lat="43.19496" lon="13.188407"><ele>499.2857142857143</ele><time>2026-05-02T09:55:57.889Z</time></trkpt><trkpt lat="43.1950129" lon="13.1884762"><ele>498.7142857142857</ele><time>2026-05-02T09:55:58.89Z</time></trkpt><trkpt lat="43.1950736" lon="13.1885303"><ele>498.1428571428571</ele><time>2026-05-02T09:55:59.89Z</time></trkpt><trkpt lat="43.195139" lon="13.1885807"><ele>497.57142857142856</ele><time>2026-05-02T09:56:00.891Z</time></trkpt><trkpt lat="43.1952093" lon="13.1886448"><ele>497.0</ele><time>2026-05-02T09:56:01.891Z</time></trkpt><trkpt lat="43.1952814" lon="13.1887233"><ele>496.99999999999994</ele><time>2026-05-02T09:56:02.889Z</time></trkpt><trkpt lat="43.1953371" lon="13.1888209"><ele>497.0</ele><time>2026-05-02T09:56:03.891Z</time></trkpt><trkpt lat="43.1953858" lon="13.1889138"><ele>497.0</ele><time>2026-05-02T09:56:04.891Z</time></trkpt><trkpt lat="43.1954253" lon="13.1889911"><ele>497.0</ele><time>2026-05-02T09:56:05.891Z</time></trkpt><trkpt lat="43.1954637" lon="13.1890809"><ele>496.99999999999994</ele><time>2026-05-02T09:56:06.89Z</time></trkpt><trkpt lat="43.1955034" lon="13.1891696"><ele>497.0</ele><time>2026-05-02T09:56:07.89Z</time></trkpt><trkpt lat="43.1955283" lon="13.1892516"><ele>497.3333333333333</ele><time>2026-05-02T09:56:08.889Z</time></trkpt><trkpt lat="43.1955585" lon="13.1893337"><ele>497.66666666666663</ele><time>2026-05-02T09:56:09.891Z</time></trkpt><trkpt lat="43.1956057" lon="13.1894303"><ele>498.0</ele><time>2026-05-02T09:56:10.891Z</time></trkpt><trkpt lat="43.1956532" lon="13.1895302"><ele>498.33333333333337</ele><time>2026-05-02T09:56:11.891Z</time></trkpt><trkpt lat="43.1956834" lon="13.1896256"><ele>498.6666666666667</ele><time>2026-05-02T09:56:12.891Z</time></trkpt><trkpt lat="43.1957046" lon="13.189731"><ele>499.0</ele><time>2026-05-02T09:56:13.89Z</time></trkpt><trkpt lat="43.195716" lon="13.1898337"><ele>499.00000000000006</ele><time>2026-05-02T09:56:14.891Z</time></trkpt><trkpt lat="43.19572" lon="13.1899231"><ele>499.0</ele><time>2026-05-02T09:56:15.891Z</time></trkpt><trkpt lat="43.1956867" lon="13.1900046"><ele>499.0</ele><time>2026-05-02T09:56:19.889Z</time></trkpt><trkpt lat="43.1957586" lon="13.1899776"><ele>499.0</ele><time>2026-05-02T09:56:34.891Z</time></trkpt><trkpt lat="43.1957392" lon="13.1898682"><ele>499.00000000000006</ele><time>2026-05-02T09:56:35.89Z</time></trkpt><trkpt lat="43.1957151" lon="13.1897236"><ele>499.0</ele><time>2026-05-02T09:56:36.89Z</time></trkpt><trkpt lat="43.1956971" lon="13.189615"><ele>499.00000000000006</ele><time>2026-05-02T09:56:37.891Z</time></trkpt><trkpt lat="43.1956757" lon="13.1895174"><ele>499.0</ele><time>2026-05-02T09:56:38.891Z</time></trkpt><trkpt lat="43.1956351" lon="13.189424"><ele>499.0</ele><time>2026-05-02T09:56:39.891Z</time></trkpt><trkpt lat="43.1955862" lon="13.1893558"><ele>499.0</ele><time>2026-05-02T09:56:40.89Z</time></trkpt><trkpt lat="43.1955405" lon="13.1892781"><ele>499.00000000000006</ele><time>2026-05-02T09:56:41.89Z</time></trkpt><trkpt lat="43.1954957" lon="13.1891729"><ele>499.0</ele><time>2026-05-02T09:56:42.891Z</time></trkpt><trkpt lat="43.1954546" lon="13.1890558"><ele>498.6666666666667</ele><time>2026-05-02T09:56:43.89Z</time></trkpt><trkpt lat="43.1954152" lon="13.1889399"><ele>498.33333333333337</ele><time>2026-05-02T09:56:44.891Z</time></trkpt><trkpt lat="43.1953823" lon="13.1888361"><ele>498.0</ele><time>2026-05-02T09:56:45.891Z</time></trkpt><trkpt lat="43.1953485" lon="13.1887445"><ele>497.66666666666663</ele><time>2026-05-02T09:56:46.89Z</time></trkpt><trkpt lat="43.1953125" lon="13.1886542"><ele>497.3333333333333</ele><time>2026-05-02T09:56:47.89Z</time></trkpt><trkpt lat="43.1952773" lon="13.1885509"><ele>497.0</ele><time>2026-05-02T09:56:48.891Z</time></trkpt><trkpt lat="43.1952443" lon="13.1884468"><ele>497.0</ele><time>2026-05-02T09:56:49.89Z</time></trkpt><trkpt lat="43.1952276" lon="13.1883583"><ele>497.00000000000006</ele><time>2026-05-02T09:56:50.89Z</time></trkpt><trkpt lat="43.1952365" lon="13.1881729"><ele>497.00000000000006</ele><time>2026-05-02T09:56:52.891Z</time></trkpt><trkpt lat="43.1952496" lon="13.1880876"><ele>497.0</ele><time>2026-05-02T09:56:53.89Z</time></trkpt><trkpt lat="43.1952843" lon="13.1879404"><ele>497.0</ele><time>2026-05-02T09:56:55.891Z</time></trkpt><trkpt lat="43.1952965" lon="13.1877697"><ele>497.66666666666663</ele><time>2026-05-02T09:56:57.89Z</time></trkpt><trkpt lat="43.1952744" lon="13.187679"><ele>498.3333333333333</ele><time>2026-05-02T09:56:58.89Z</time></trkpt><trkpt lat="43.1952461" lon="13.1875893"><ele>499.0</ele><time>2026-05-02T09:56:59.891Z</time></trkpt><trkpt lat="43.1951991" lon="13.1875155"><ele>499.66666666666663</ele><time>2026-05-02T09:57:00.89Z</time></trkpt><trkpt lat="43.1951675" lon="13.1874186"><ele>500.3333333333333</ele><time>2026-05-02T09:57:01.891Z</time></trkpt><trkpt lat="43.1951682" lon="13.1873114"><ele>501.0</ele><time>2026-05-02T09:57:02.891Z</time></trkpt><trkpt lat="43.1951696" lon="13.187194"><ele>502.8333333333333</ele><time>2026-05-02T09:57:03.89Z</time></trkpt><trkpt lat="43.1951676" lon="13.1870618"><ele>504.66666666666663</ele><time>2026-05-02T09:57:04.889Z</time></trkpt><trkpt lat="43.1951701" lon="13.1869391"><ele>506.5</ele><time>2026-05-02T09:57:05.891Z</time></trkpt><trkpt lat="43.1951627" lon="13.1868487"><ele>508.3333333333333</ele><time>2026-05-02T09:57:06.888Z</time></trkpt><trkpt lat="43.1952497" lon="13.18678"><ele>510.16666666666663</ele><time>2026-05-02T09:57:09.89Z</time></trkpt><trkpt lat="43.1953208" lon="13.186754"><ele>512.0</ele><time>2026-05-02T09:57:10.891Z</time></trkpt><trkpt lat="43.1954006" lon="13.1867142"><ele>511.99999999999994</ele><time>2026-05-02T09:57:11.89Z</time></trkpt><trkpt lat="43.1954617" lon="13.1866472"><ele>512.0</ele><time>2026-05-02T09:57:12.891Z</time></trkpt><trkpt lat="43.1955029" lon="13.1865555"><ele>512.0</ele><time>2026-05-02T09:57:13.891Z</time></trkpt><trkpt lat="43.1955486" lon="13.1864621"><ele>512.0</ele><time>2026-05-02T09:57:14.89Z</time></trkpt><trkpt lat="43.1955972" lon="13.186371"><ele>511.99999999999994</ele><time>2026-05-02T09:57:15.89Z</time></trkpt><trkpt lat="43.1956293" lon="13.1862945"><ele>512.0</ele><time>2026-05-02T09:57:16.891Z</time></trkpt><trkpt lat="43.1956266" lon="13.1861302"><ele>511.99999999999994</ele><time>2026-05-02T09:57:18.89Z</time></trkpt><trkpt lat="43.19566" lon="13.1859464"><ele>512.0</ele><time>2026-05-02T09:57:20.89Z</time></trkpt><trkpt lat="43.1956829" lon="13.1858429"><ele>512.0</ele><time>2026-05-02T09:57:21.89Z</time></trkpt><trkpt lat="43.1956984" lon="13.1857456"><ele>512.0</ele><time>2026-05-02T09:57:22.89Z</time></trkpt><trkpt lat="43.1956996" lon="13.1856452"><ele>511.99999999999994</ele><time>2026-05-02T09:57:23.89Z</time></trkpt><trkpt lat="43.1957062" lon="13.1855352"><ele>512.0</ele><time>2026-05-02T09:57:24.891Z</time></trkpt><trkpt lat="43.1957261" lon="13.1854415"><ele>517.4</ele><time>2026-05-02T09:57:25.891Z</time></trkpt><trkpt lat="43.1958366" lon="13.1853511"><ele>522.8000000000001</ele><time>2026-05-02T09:57:27.891Z</time></trkpt><trkpt lat="43.1959373" lon="13.185323"><ele>528.2</ele><time>2026-05-02T09:57:28.891Z</time></trkpt><trkpt lat="43.1960295" lon="13.1852966"><ele>533.6</ele><time>2026-05-02T09:57:29.89Z</time></trkpt><trkpt lat="43.1960955" lon="13.1852386"><ele>539.0</ele><time>2026-05-02T09:57:30.891Z</time></trkpt><trkpt lat="43.196165" lon="13.1852037"><ele>539.0</ele><time>2026-05-02T09:57:31.889Z</time></trkpt><trkpt lat="43.1962345" lon="13.1851971"><ele>539.0</ele><time>2026-05-02T09:57:32.89Z</time></trkpt><trkpt lat="43.196359" lon="13.1851224"><ele>539.0</ele><time>2026-05-02T09:57:34.89Z</time></trkpt><trkpt lat="43.1964195" lon="13.1850882"><ele>539.0</ele><time>2026-05-02T09:57:35.89Z</time></trkpt><trkpt lat="43.1964781" lon="13.1849937"><ele>539.0</ele><time>2026-05-02T09:57:37.89Z</time></trkpt><trkpt lat="43.1964977" lon="13.1848757"><ele>537.6</ele><time>2026-05-02T09:57:39.891Z</time></trkpt><trkpt lat="43.1965096" lon="13.1846824"><ele>536.2</ele><time>2026-05-02T09:57:41.889Z</time></trkpt><trkpt lat="43.1965089" lon="13.1845641"><ele>534.8000000000001</ele><time>2026-05-02T09:57:42.89Z</time></trkpt><trkpt lat="43.1964984" lon="13.1844525"><ele>533.4</ele><time>2026-05-02T09:57:43.89Z</time></trkpt><trkpt lat="43.1964832" lon="13.1843451"><ele>532.0</ele><time>2026-05-02T09:57:44.89Z</time></trkpt><trkpt lat="43.1964613" lon="13.1842358"><ele>536.4</ele><time>2026-05-02T09:57:45.89Z</time></trkpt><trkpt lat="43.1964599" lon="13.1841463"><ele>540.8000000000001</ele><time>2026-05-02T09:57:46.891Z</time></trkpt><trkpt lat="43.196493" lon="13.1839836"><ele>545.2</ele><time>2026-05-02T09:57:48.89Z</time></trkpt><trkpt lat="43.1965722" lon="13.183864"><ele>549.6</ele><time>2026-05-02T09:57:50.891Z</time></trkpt><trkpt lat="43.1966043" lon="13.1837083"><ele>554.0</ele><time>2026-05-02T09:57:52.89Z</time></trkpt><trkpt lat="43.1966341" lon="13.1835782"><ele>554.0</ele><time>2026-05-02T09:57:54.89Z</time></trkpt><trkpt lat="43.1966768" lon="13.1834336"><ele>554.0</ele><time>2026-05-02T09:57:56.89Z</time></trkpt><trkpt lat="43.1967276" lon="13.1832965"><ele>554.0</ele><time>2026-05-02T09:57:58.891Z</time></trkpt><trkpt lat="43.1967589" lon="13.1832011"><ele>554.0</ele><time>2026-05-02T09:58:00.89Z</time></trkpt><trkpt lat="43.1967897" lon="13.1830925"><ele>554.0</ele><time>2026-05-02T09:58:02.89Z</time></trkpt><trkpt lat="43.1968594" lon="13.1829473"><ele>558.5</ele><time>2026-05-02T09:58:04.89Z</time></trkpt><trkpt lat="43.1969254" lon="13.1828706"><ele>563.0</ele><time>2026-05-02T09:58:05.891Z</time></trkpt><trkpt lat="43.1969855" lon="13.1827873"><ele>567.5</ele><time>2026-05-02T09:58:06.891Z</time></trkpt><trkpt lat="43.1970317" lon="13.1827243"><ele>572.0</ele><time>2026-05-02T09:58:07.891Z</time></trkpt><trkpt lat="43.1970892" lon="13.1826831"><ele>576.5</ele><time>2026-05-02T09:58:08.891Z</time></trkpt><trkpt lat="43.1971819" lon="13.1826965"><ele>581.0</ele><time>2026-05-02T09:58:09.891Z</time></trkpt><trkpt lat="43.1972579" lon="13.182703"><ele>581.0</ele><time>2026-05-02T09:58:10.89Z</time></trkpt><trkpt lat="43.1973279" lon="13.1827483"><ele>581.0</ele><time>2026-05-02T09:58:11.89Z</time></trkpt><trkpt lat="43.1973994" lon="13.1828123"><ele>581.0</ele><time>2026-05-02T09:58:12.89Z</time></trkpt><trkpt lat="43.1974736" lon="13.1828763"><ele>581.0</ele><time>2026-05-02T09:58:13.89Z</time></trkpt><trkpt lat="43.19754" lon="13.1829059"><ele>581.0</ele><time>2026-05-02T09:58:14.89Z</time></trkpt><trkpt lat="43.1976502" lon="13.1829061"><ele>581.0</ele><time>2026-05-02T09:58:16.891Z</time></trkpt><trkpt lat="43.1977136" lon="13.1828735"><ele>578.2</ele><time>2026-05-02T09:58:17.89Z</time></trkpt><trkpt lat="43.1977883" lon="13.1828231"><ele>575.4000000000001</ele><time>2026-05-02T09:58:18.891Z</time></trkpt><trkpt lat="43.1978592" lon="13.1827831"><ele>572.6</ele><time>2026-05-02T09:58:19.89Z</time></trkpt><trkpt lat="43.1979721" lon="13.1827045"><ele>569.8000000000001</ele><time>2026-05-02T09:58:21.889Z</time></trkpt><trkpt lat="43.1980565" lon="13.1826753"><ele>567.0</ele><time>2026-05-02T09:58:22.89Z</time></trkpt><trkpt lat="43.1981318" lon="13.1826429"><ele>565.8000000000001</ele><time>2026-05-02T09:58:23.889Z</time></trkpt><trkpt lat="43.198211" lon="13.182622"><ele>564.6</ele><time>2026-05-02T09:58:24.889Z</time></trkpt><trkpt lat="43.1983032" lon="13.1825355"><ele>563.4000000000001</ele><time>2026-05-02T09:58:26.89Z</time></trkpt><trkpt lat="43.1983699" lon="13.1823925"><ele>562.2</ele><time>2026-05-02T09:58:28.891Z</time></trkpt><trkpt lat="43.1984228" lon="13.1823058"><ele>561.0</ele><time>2026-05-02T09:58:29.891Z</time></trkpt><trkpt lat="43.1984845" lon="13.1821622"><ele>564.5</ele><time>2026-05-02T09:58:31.889Z</time></trkpt><trkpt lat="43.1985413" lon="13.1820416"><ele>568.0</ele><time>2026-05-02T09:58:33.891Z</time></trkpt><trkpt lat="43.1985502" lon="13.1819401"><ele>571.5</ele><time>2026-05-02T09:58:35.89Z</time></trkpt><trkpt lat="43.1984761" lon="13.181888"><ele>575.0</ele><time>2026-05-02T10:01:30.891Z</time></trkpt><trkpt lat="43.1984229" lon="13.1818357"><ele>578.5</ele><time>2026-05-02T10:01:32.889Z</time></trkpt><trkpt lat="43.1983593" lon="13.1817457"><ele>582.0</ele><time>2026-05-02T10:01:34.89Z</time></trkpt><trkpt lat="43.1982614" lon="13.1816584"><ele>582.0</ele><time>2026-05-02T10:01:36.891Z</time></trkpt><trkpt lat="43.1981773" lon="13.1815868"><ele>582.0</ele><time>2026-05-02T10:01:38.89Z</time></trkpt><trkpt lat="43.1981042" lon="13.1815483"><ele>582.0</ele><time>2026-05-02T10:01:40.891Z</time></trkpt><trkpt lat="43.1980459" lon="13.1815146"><ele>582.0</ele><time>2026-05-02T10:01:42.891Z</time></trkpt><trkpt lat="43.1979701" lon="13.1814532"><ele>582.0</ele><time>2026-05-02T10:01:45.891Z</time></trkpt><trkpt lat="43.1979388" lon="13.181372"><ele>582.0</ele><time>2026-05-02T10:01:48.89Z</time></trkpt><trkpt lat="43.1979063" lon="13.1812795"><ele>591.0</ele><time>2026-05-02T10:01:54.891Z</time></trkpt><trkpt lat="43.1978661" lon="13.181193"><ele>600.0</ele><time>2026-05-02T10:01:58.89Z</time></trkpt><trkpt lat="43.1978282" lon="13.1811115"><ele>609.0</ele><time>2026-05-02T10:02:01.89Z</time></trkpt><trkpt lat="43.1978129" lon="13.1810039"><ele>618.0</ele><time>2026-05-02T10:03:27.891Z</time></trkpt><trkpt lat="43.1979013" lon="13.1808774"><ele>627.0</ele><time>2026-05-02T10:03:30.89Z</time></trkpt><trkpt lat="43.197963" lon="13.180732"><ele>627.8000000000001</ele><time>2026-05-02T10:03:32.889Z</time></trkpt><trkpt lat="43.198004" lon="13.1806033"><ele>628.6</ele><time>2026-05-02T10:03:34.891Z</time></trkpt><trkpt lat="43.1980643" lon="13.1805049"><ele>629.4000000000001</ele><time>2026-05-02T10:03:36.889Z</time></trkpt><trkpt lat="43.1981618" lon="13.1804336"><ele>630.2</ele><time>2026-05-02T10:03:38.89Z</time></trkpt><trkpt lat="43.1982161" lon="13.1803842"><ele>631.0</ele><time>2026-05-02T10:03:39.89Z</time></trkpt><trkpt lat="43.1982854" lon="13.1802692"><ele>631.0</ele><time>2026-05-02T10:03:41.89Z</time></trkpt><trkpt lat="43.198334" lon="13.1801422"><ele>631.0</ele><time>2026-05-02T10:03:43.89Z</time></trkpt><trkpt lat="43.1983624" lon="13.1800639"><ele>631.0</ele><time>2026-05-02T10:03:45.89Z</time></trkpt><trkpt lat="43.1983708" lon="13.1799714"><ele>631.0</ele><time>2026-05-02T10:03:48.891Z</time></trkpt><trkpt lat="43.1984036" lon="13.1798779"><ele>631.0</ele><time>2026-05-02T10:04:28.89Z</time></trkpt><trkpt lat="43.1984329" lon="13.1797965"><ele>631.0</ele><time>2026-05-02T10:04:43.773Z</time></trkpt><trkpt lat="43.1983873" lon="13.1797194"><ele>635.0</ele><time>2026-05-02T10:04:47.889Z</time></trkpt><trkpt lat="43.1983244" lon="13.1797076"><ele>639.0</ele><time>2026-05-02T10:04:49.89Z</time></trkpt><trkpt lat="43.1982494" lon="13.1797148"><ele>643.0</ele><time>2026-05-02T10:04:51.89Z</time></trkpt><trkpt lat="43.1981671" lon="13.1796959"><ele>647.0</ele><time>2026-05-02T10:04:53.89Z</time></trkpt><trkpt lat="43.1981337" lon="13.1795794"><ele>651.0</ele><time>2026-05-02T10:04:55.89Z</time></trkpt><trkpt lat="43.1981104" lon="13.1794847"><ele>655.0</ele><time>2026-05-02T10:04:57.89Z</time></trkpt><trkpt lat="43.198092" lon="13.1793966"><ele>658.6666666666667</ele><time>2026-05-02T10:05:00.891Z</time></trkpt><trkpt lat="43.1980818" lon="13.1792943"><ele>662.3333333333334</ele><time>2026-05-02T10:10:56.89Z</time></trkpt><trkpt lat="43.1980978" lon="13.1791993"><ele>666.0</ele><time>2026-05-02T10:10:58.888Z</time></trkpt><trkpt lat="43.198146" lon="13.1790951"><ele>669.6666666666666</ele><time>2026-05-02T10:11:01.89Z</time></trkpt><trkpt lat="43.198139" lon="13.1789842"><ele>673.3333333333333</ele><time>2026-05-02T10:11:03.89Z</time></trkpt><trkpt lat="43.1981175" lon="13.178863"><ele>677.0</ele><time>2026-05-02T10:11:05.889Z</time></trkpt><trkpt lat="43.1981201" lon="13.1787368"><ele>676.8333333333333</ele><time>2026-05-02T10:11:07.889Z</time></trkpt><trkpt lat="43.1981302" lon="13.1786348"><ele>676.6666666666666</ele><time>2026-05-02T10:11:09.889Z</time></trkpt><trkpt lat="43.1981325" lon="13.1785282"><ele>676.5</ele><time>2026-05-02T10:11:18.889Z</time></trkpt><trkpt lat="43.1981641" lon="13.1784366"><ele>676.3333333333334</ele><time>2026-05-02T10:11:20.887Z</time></trkpt><trkpt lat="43.1982046" lon="13.1783473"><ele>676.1666666666667</ele><time>2026-05-02T10:11:22.888Z</time></trkpt><trkpt lat="43.198263" lon="13.1782768"><ele>676.0</ele><time>2026-05-02T10:11:24.89Z</time></trkpt><trkpt lat="43.1982893" lon="13.1781721"><ele>680.0</ele><time>2026-05-02T10:11:27.89Z</time></trkpt><trkpt lat="43.1983302" lon="13.178103"><ele>684.0</ele><time>2026-05-02T10:11:31.795Z</time></trkpt><trkpt lat="43.1983793" lon="13.1780019"><ele>688.0</ele><time>2026-05-02T10:11:32.791Z</time></trkpt><trkpt lat="43.1984332" lon="13.1779334"><ele>692.0</ele><time>2026-05-02T10:11:33.888Z</time></trkpt><trkpt lat="43.1984694" lon="13.1778317"><ele>696.0</ele><time>2026-05-02T10:11:35.888Z</time></trkpt><trkpt lat="43.1984858" lon="13.1777343"><ele>700.0</ele><time>2026-05-02T10:11:37.89Z</time></trkpt><trkpt lat="43.1985515" lon="13.177635"><ele>700.0</ele><time>2026-05-02T10:11:40.89Z</time></trkpt><trkpt lat="43.1985866" lon="13.1775587"><ele>700.0</ele><time>2026-05-02T10:11:42.89Z</time></trkpt><trkpt lat="43.1986052" lon="13.1774662"><ele>700.0</ele><time>2026-05-02T10:11:44.89Z</time></trkpt><trkpt lat="43.1986095" lon="13.1773435"><ele>700.0</ele><time>2026-05-02T10:11:46.89Z</time></trkpt><trkpt lat="43.1986301" lon="13.1772387"><ele>700.0</ele><time>2026-05-02T10:11:49.889Z</time></trkpt><trkpt lat="43.1986793" lon="13.1771623"><ele>700.0</ele><time>2026-05-02T10:11:51.888Z</time></trkpt><trkpt lat="43.1987508" lon="13.1770592"><ele>703.6</ele><time>2026-05-02T10:11:53.889Z</time></trkpt><trkpt lat="43.1988175" lon="13.1769574"><ele>707.2</ele><time>2026-05-02T10:12:24.889Z</time></trkpt><trkpt lat="43.198885" lon="13.1768326"><ele>710.8</ele><time>2026-05-02T10:12:26.89Z</time></trkpt><trkpt lat="43.1989169" lon="13.1767273"><ele>714.4</ele><time>2026-05-02T10:12:28.889Z</time></trkpt><trkpt lat="43.1989565" lon="13.1765877"><ele>718.0</ele><time>2026-05-02T10:12:30.888Z</time></trkpt><trkpt lat="43.1990164" lon="13.1765007"><ele>718.1666666666667</ele><time>2026-05-02T10:12:32.889Z</time></trkpt><trkpt lat="43.1990882" lon="13.1764302"><ele>718.3333333333334</ele><time>2026-05-02T10:12:34.889Z</time></trkpt><trkpt lat="43.1991636" lon="13.1763715"><ele>718.5</ele><time>2026-05-02T10:12:36.89Z</time></trkpt><trkpt lat="43.1992405" lon="13.176355"><ele>718.6666666666666</ele><time>2026-05-02T10:12:38.888Z</time></trkpt><trkpt lat="43.1992978" lon="13.1762832"><ele>718.8333333333333</ele><time>2026-05-02T10:12:40.89Z</time></trkpt><trkpt lat="43.1993552" lon="13.1762282"><ele>719.0</ele><time>2026-05-02T10:12:42.89Z</time></trkpt><trkpt lat="43.1994348" lon="13.1762129"><ele>719.0</ele><time>2026-05-02T10:12:44.888Z</time></trkpt><trkpt lat="43.1995078" lon="13.1762163"><ele>719.0</ele><time>2026-05-02T10:12:46.8Z</time></trkpt><trkpt lat="43.1995693" lon="13.1761288"><ele>719.0</ele><time>2026-05-02T10:12:47.889Z</time></trkpt><trkpt lat="43.1996015" lon="13.1760517"><ele>719.0</ele><time>2026-05-02T10:12:48.89Z</time></trkpt><trkpt lat="43.199656" lon="13.1759355"><ele>719.0</ele><time>2026-05-02T10:12:50.889Z</time></trkpt><trkpt lat="43.1997328" lon="13.1758522"><ele>719.0</ele><time>2026-05-02T10:12:52.888Z</time></trkpt><trkpt lat="43.1997632" lon="13.1757608"><ele>718.9999999999999</ele><time>2026-05-02T10:12:54.89Z</time></trkpt><trkpt lat="43.1996811" lon="13.1757611"><ele>719.0</ele><time>2026-05-02T10:12:57.889Z</time></trkpt><trkpt lat="43.1995863" lon="13.1757404"><ele>719.0</ele><time>2026-05-02T10:12:59.89Z</time></trkpt><trkpt lat="43.1995228" lon="13.1757229"><ele>719.0</ele><time>2026-05-02T10:13:00.889Z</time></trkpt><trkpt lat="43.1994592" lon="13.1757136"><ele>719.0</ele><time>2026-05-02T10:13:01.889Z</time></trkpt><trkpt lat="43.1993952" lon="13.1757094"><ele>718.9999999999999</ele><time>2026-05-02T10:13:02.89Z</time></trkpt><trkpt lat="43.1993293" lon="13.1756972"><ele>719.0</ele><time>2026-05-02T10:13:03.889Z</time></trkpt><trkpt lat="43.1992624" lon="13.1756614"><ele>722.0</ele><time>2026-05-02T10:13:04.889Z</time></trkpt><trkpt lat="43.1992004" lon="13.1756327"><ele>725.0</ele><time>2026-05-02T10:13:05.89Z</time></trkpt><trkpt lat="43.1990975" lon="13.1755838"><ele>728.0</ele><time>2026-05-02T10:13:07.889Z</time></trkpt><trkpt lat="43.1990255" lon="13.1756625"><ele>731.0</ele><time>2026-05-02T10:13:09.889Z</time></trkpt><trkpt lat="43.1989866" lon="13.1757342"><ele>734.0</ele><time>2026-05-02T10:13:11.888Z</time></trkpt><trkpt lat="43.1988822" lon="13.1758175"><ele>734.0</ele><time>2026-05-02T10:13:15.889Z</time></trkpt><trkpt lat="43.1988197" lon="13.1758769"><ele>734.0</ele><time>2026-05-02T10:13:16.888Z</time></trkpt><trkpt lat="43.1987485" lon="13.1759426"><ele>734.0</ele><time>2026-05-02T10:13:17.889Z</time></trkpt><trkpt lat="43.198661" lon="13.1760025"><ele>734.0</ele><time>2026-05-02T10:13:18.89Z</time></trkpt><trkpt lat="43.1985628" lon="13.1760529"><ele>734.0</ele><time>2026-05-02T10:13:19.888Z</time></trkpt><trkpt lat="43.1984776" lon="13.1760961"><ele>734.0</ele><time>2026-05-02T10:13:20.888Z</time></trkpt><trkpt lat="43.1984014" lon="13.176126"><ele>734.0</ele><time>2026-05-02T10:13:21.889Z</time></trkpt><trkpt lat="43.198334" lon="13.1761469"><ele>734.0</ele><time>2026-05-02T10:13:22.889Z</time></trkpt><trkpt lat="43.198264" lon="13.1761768"><ele>734.0</ele><time>2026-05-02T10:13:23.888Z</time></trkpt><trkpt lat="43.1982027" lon="13.1762123"><ele>734.0</ele><time>2026-05-02T10:13:24.89Z</time></trkpt><trkpt lat="43.1981331" lon="13.1762662"><ele>734.0</ele><time>2026-05-02T10:13:26.889Z</time></trkpt><trkpt lat="43.1980557" lon="13.1763423"><ele>733.2</ele><time>2026-05-02T10:13:28.888Z</time></trkpt><trkpt lat="43.1979622" lon="13.176448"><ele>732.4000000000001</ele><time>2026-05-02T10:13:30.889Z</time></trkpt><trkpt lat="43.1978732" lon="13.1765117"><ele>731.6</ele><time>2026-05-02T10:13:32.89Z</time></trkpt><trkpt lat="43.1978002" lon="13.1765226"><ele>730.8</ele><time>2026-05-02T10:13:36.89Z</time></trkpt><trkpt lat="43.1979163" lon="13.1764501"><ele>730.0</ele><time>2026-05-02T10:13:50.888Z</time></trkpt><trkpt lat="43.1979822" lon="13.1763934"><ele>730.8</ele><time>2026-05-02T10:13:51.889Z</time></trkpt><trkpt lat="43.1980322" lon="13.1763375"><ele>731.6</ele><time>2026-05-02T10:13:52.89Z</time></trkpt><trkpt lat="43.1981302" lon="13.1762404"><ele>732.4000000000001</ele><time>2026-05-02T10:13:54.888Z</time></trkpt><trkpt lat="43.1982368" lon="13.1761814"><ele>733.2</ele><time>2026-05-02T10:13:56.889Z</time></trkpt><trkpt lat="43.198356" lon="13.1761397"><ele>734.0</ele><time>2026-05-02T10:13:58.889Z</time></trkpt><trkpt lat="43.1984235" lon="13.1761178"><ele>734.0</ele><time>2026-05-02T10:13:59.89Z</time></trkpt><trkpt lat="43.1984947" lon="13.1760858"><ele>734.0</ele><time>2026-05-02T10:14:00.889Z</time></trkpt><trkpt lat="43.1985745" lon="13.1760508"><ele>734.0</ele><time>2026-05-02T10:14:01.888Z</time></trkpt><trkpt lat="43.1986487" lon="13.1760096"><ele>734.0</ele><time>2026-05-02T10:14:02.888Z</time></trkpt><trkpt lat="43.1987146" lon="13.1759711"><ele>734.0</ele><time>2026-05-02T10:14:03.89Z</time></trkpt><trkpt lat="43.1988204" lon="13.1758942"><ele>734.0</ele><time>2026-05-02T10:14:05.889Z</time></trkpt><trkpt lat="43.1989141" lon="13.1758013"><ele>734.0</ele><time>2026-05-02T10:14:07.888Z</time></trkpt><trkpt lat="43.1989954" lon="13.1756946"><ele>734.0</ele><time>2026-05-02T10:14:09.889Z</time></trkpt><trkpt lat="43.1990543" lon="13.1755976"><ele>734.0</ele><time>2026-05-02T10:14:11.888Z</time></trkpt><trkpt lat="43.199139" lon="13.1754932"><ele>734.0</ele><time>2026-05-02T10:14:13.888Z</time></trkpt><trkpt lat="43.199195" lon="13.1754173"><ele>734.0</ele><time>2026-05-02T10:14:15.89Z</time></trkpt><trkpt lat="43.1992196" lon="13.1753055"><ele>734.6666666666666</ele><time>2026-05-02T10:14:18.889Z</time></trkpt><trkpt lat="43.1992566" lon="13.1752102"><ele>735.3333333333333</ele><time>2026-05-02T10:14:24.812Z</time></trkpt><trkpt lat="43.199307" lon="13.175128"><ele>736.0</ele><time>2026-05-02T10:14:26.89Z</time></trkpt><trkpt lat="43.1993416" lon="13.1750503"><ele>736.6666666666666</ele><time>2026-05-02T10:14:28.89Z</time></trkpt><trkpt lat="43.1993613" lon="13.174939"><ele>737.3333333333334</ele><time>2026-05-02T10:14:30.889Z</time></trkpt><trkpt lat="43.1993998" lon="13.1748689"><ele>738.0</ele><time>2026-05-02T10:14:32.889Z</time></trkpt><trkpt lat="43.199408" lon="13.1747534"><ele>739.8333333333334</ele><time>2026-05-02T10:14:35.889Z</time></trkpt><trkpt lat="43.199403" lon="13.1746446"><ele>741.6666666666666</ele><time>2026-05-02T10:14:37.889Z</time></trkpt><trkpt lat="43.199363" lon="13.1745487"><ele>743.5</ele><time>2026-05-02T10:14:39.889Z</time></trkpt><trkpt lat="43.1993185" lon="13.1744758"><ele>745.3333333333333</ele><time>2026-05-02T10:14:42.889Z</time></trkpt><trkpt lat="43.1992844" lon="13.1743595"><ele>747.1666666666666</ele><time>2026-05-02T10:14:45.89Z</time></trkpt><trkpt lat="43.1992006" lon="13.1742782"><ele>749.0</ele><time>2026-05-02T10:14:47.889Z</time></trkpt><trkpt lat="43.1991388" lon="13.1742291"><ele>749.0</ele><time>2026-05-02T10:14:49.889Z</time></trkpt><trkpt lat="43.1990569" lon="13.174166"><ele>749.0</ele><time>2026-05-02T10:14:51.89Z</time></trkpt><trkpt lat="43.1989643" lon="13.1741481"><ele>749.0</ele><time>2026-05-02T10:14:53.889Z</time></trkpt><trkpt lat="43.1988767" lon="13.174103"><ele>749.0</ele><time>2026-05-02T10:14:55.888Z</time></trkpt><trkpt lat="43.1988291" lon="13.1740197"><ele>749.0</ele><time>2026-05-02T10:14:57.89Z</time></trkpt><trkpt lat="43.1987632" lon="13.1739164"><ele>751.6666666666666</ele><time>2026-05-02T10:14:59.889Z</time></trkpt><trkpt lat="43.1986946" lon="13.1738588"><ele>754.3333333333333</ele><time>2026-05-02T10:15:01.89Z</time></trkpt><trkpt lat="43.1986466" lon="13.1737943"><ele>757.0</ele><time>2026-05-02T10:15:03.889Z</time></trkpt><trkpt lat="43.1985888" lon="13.173729"><ele>759.6666666666666</ele><time>2026-05-02T10:15:05.888Z</time></trkpt><trkpt lat="43.1985424" lon="13.1736606"><ele>762.3333333333334</ele><time>2026-05-02T10:15:07.875Z</time></trkpt><trkpt lat="43.1985088" lon="13.1735393"><ele>765.0</ele><time>2026-05-02T10:15:12.889Z</time></trkpt><trkpt lat="43.1984908" lon="13.173443"><ele>765.0</ele><time>2026-05-02T10:15:14.889Z</time></trkpt><trkpt lat="43.1985275" lon="13.1733467"><ele>765.0</ele><time>2026-05-02T10:15:17.889Z</time></trkpt><trkpt lat="43.1985417" lon="13.1732591"><ele>765.0</ele><time>2026-05-02T10:15:21.889Z</time></trkpt><trkpt lat="43.198592" lon="13.1731422"><ele>765.0</ele><time>2026-05-02T10:15:24.89Z</time></trkpt><trkpt lat="43.1986199" lon="13.1730408"><ele>765.0</ele><time>2026-05-02T10:15:26.889Z</time></trkpt><trkpt lat="43.1985982" lon="13.1729426"><ele>765.0</ele><time>2026-05-02T10:15:28.89Z</time></trkpt><trkpt lat="43.1985579" lon="13.1728439"><ele>766.3333333333334</ele><time>2026-05-02T10:15:30.893Z</time></trkpt><trkpt lat="43.1985374" lon="13.1727318"><ele>767.6666666666667</ele><time>2026-05-02T10:15:32.889Z</time></trkpt><trkpt lat="43.198517" lon="13.1726445"><ele>769.0</ele><time>2026-05-02T10:15:34.889Z</time></trkpt><trkpt lat="43.1984909" lon="13.1725581"><ele>770.3333333333334</ele><time>2026-05-02T10:15:36.888Z</time></trkpt><trkpt lat="43.1984856" lon="13.1724455"><ele>771.6666666666667</ele><time>2026-05-02T10:15:38.889Z</time></trkpt><trkpt lat="43.1984887" lon="13.1723435"><ele>773.0</ele><time>2026-05-02T10:15:40.852Z</time></trkpt><trkpt lat="43.1984851" lon="13.1722119"><ele>774.0</ele><time>2026-05-02T10:15:42.889Z</time></trkpt><trkpt lat="43.1984733" lon="13.1720955"><ele>775.0</ele><time>2026-05-02T10:15:44.889Z</time></trkpt><trkpt lat="43.1984189" lon="13.1720336"><ele>776.0</ele><time>2026-05-02T10:15:47.89Z</time></trkpt><trkpt lat="43.1983549" lon="13.1720022"><ele>777.0</ele><time>2026-05-02T10:15:50.889Z</time></trkpt><trkpt lat="43.1983265" lon="13.1719063"><ele>778.0</ele><time>2026-05-02T10:15:53.888Z</time></trkpt><trkpt lat="43.1983784" lon="13.1718457"><ele>779.0</ele><time>2026-05-02T10:15:55.888Z</time></trkpt><trkpt lat="43.1984444" lon="13.1718406"><ele>780.0</ele><time>2026-05-02T10:15:57.812Z</time></trkpt><trkpt lat="43.1985172" lon="13.1718801"><ele>780.0</ele><time>2026-05-02T10:15:59.889Z</time></trkpt><trkpt lat="43.1986039" lon="13.1719464"><ele>780.0</ele><time>2026-05-02T10:16:01.888Z</time></trkpt><trkpt lat="43.1986653" lon="13.17189"><ele>780.0</ele><time>2026-05-02T10:16:05.89Z</time></trkpt><trkpt lat="43.1986439" lon="13.1717747"><ele>780.0</ele><time>2026-05-02T10:16:08.889Z</time></trkpt><trkpt lat="43.1986359" lon="13.1716499"><ele>780.0</ele><time>2026-05-02T10:16:11.889Z</time></trkpt><trkpt lat="43.1986259" lon="13.171563"><ele>780.0</ele><time>2026-05-02T10:16:13.889Z</time></trkpt><trkpt lat="43.1985992" lon="13.1714835"><ele>781.1666666666666</ele><time>2026-05-02T10:16:15.888Z</time></trkpt><trkpt lat="43.1985771" lon="13.1713803"><ele>782.3333333333333</ele><time>2026-05-02T10:16:17.889Z</time></trkpt><trkpt lat="43.1985476" lon="13.1712711"><ele>783.5</ele><time>2026-05-02T10:16:19.889Z</time></trkpt><trkpt lat="43.1985322" lon="13.1711455"><ele>784.6666666666666</ele><time>2026-05-02T10:16:21.889Z</time></trkpt><trkpt lat="43.1985361" lon="13.1710214"><ele>785.8333333333333</ele><time>2026-05-02T10:16:23.889Z</time></trkpt><trkpt lat="43.1985566" lon="13.1709037"><ele>787.0</ele><time>2026-05-02T10:16:25.889Z</time></trkpt><trkpt lat="43.198522" lon="13.1707988"><ele>787.6666666666666</ele><time>2026-05-02T10:16:27.888Z</time></trkpt><trkpt lat="43.1985248" lon="13.1706711"><ele>788.3333333333333</ele><time>2026-05-02T10:16:30.89Z</time></trkpt><trkpt lat="43.1985361" lon="13.1705702"><ele>789.0</ele><time>2026-05-02T10:16:32.889Z</time></trkpt><trkpt lat="43.1985392" lon="13.1704482"><ele>789.6666666666667</ele><time>2026-05-02T10:16:34.889Z</time></trkpt><trkpt lat="43.19858" lon="13.1703235"><ele>790.3333333333334</ele><time>2026-05-02T10:16:36.888Z</time></trkpt><trkpt lat="43.1986188" lon="13.1702335"><ele>791.0</ele><time>2026-05-02T10:16:38.889Z</time></trkpt><trkpt lat="43.1986002" lon="13.1701407"><ele>791.0000000000001</ele><time>2026-05-02T10:16:41.889Z</time></trkpt><trkpt lat="43.1986269" lon="13.1700427"><ele>791.0</ele><time>2026-05-02T10:16:43.89Z</time></trkpt><trkpt lat="43.1986993" lon="13.1699055"><ele>791.0</ele><time>2026-05-02T10:16:45.889Z</time></trkpt><trkpt lat="43.1987692" lon="13.169803"><ele>791.0</ele><time>2026-05-02T10:16:47.888Z</time></trkpt><trkpt lat="43.198819" lon="13.16972"><ele>791.0000000000001</ele><time>2026-05-02T10:16:49.888Z</time></trkpt><trkpt lat="43.1988559" lon="13.1696461"><ele>791.0</ele><time>2026-05-02T10:16:51.889Z</time></trkpt><trkpt lat="43.1989003" lon="13.1695645"><ele>791.1666666666667</ele><time>2026-05-02T10:16:53.889Z</time></trkpt><trkpt lat="43.1989259" lon="13.1694641"><ele>791.3333333333334</ele><time>2026-05-02T10:16:55.889Z</time></trkpt><trkpt lat="43.1989641" lon="13.1693653"><ele>791.5</ele><time>2026-05-02T10:16:57.889Z</time></trkpt><trkpt lat="43.198993" lon="13.1692834"><ele>791.6666666666667</ele><time>2026-05-02T10:16:59.888Z</time></trkpt><trkpt lat="43.1990582" lon="13.1692008"><ele>791.8333333333334</ele><time>2026-05-02T10:17:02.89Z</time></trkpt><trkpt lat="43.1990554" lon="13.1690953"><ele>792.0</ele><time>2026-05-02T10:17:05.89Z</time></trkpt><trkpt lat="43.1990459" lon="13.168964"><ele>792.0</ele><time>2026-05-02T10:17:08.889Z</time></trkpt><trkpt lat="43.1990596" lon="13.1688618"><ele>792.0</ele><time>2026-05-02T10:17:10.888Z</time></trkpt><trkpt lat="43.1990554" lon="13.1687663"><ele>792.0</ele><time>2026-05-02T10:17:12.888Z</time></trkpt><trkpt lat="43.1990383" lon="13.1686803"><ele>792.0</ele><time>2026-05-02T10:17:16.89Z</time></trkpt><trkpt lat="43.1991044" lon="13.1686117"><ele>792.0</ele><time>2026-05-02T10:17:49.888Z</time></trkpt><trkpt lat="43.1991109" lon="13.1685202"><ele>792.0</ele><time>2026-05-02T10:17:53.889Z</time></trkpt><trkpt lat="43.1990777" lon="13.1684437"><ele>792.0</ele><time>2026-05-02T10:17:57.888Z</time></trkpt><trkpt lat="43.1990237" lon="13.1683465"><ele>792.0</ele><time>2026-05-02T10:18:07.888Z</time></trkpt><trkpt lat="43.1990278" lon="13.1682562"><ele>792.0</ele><time>2026-05-02T10:18:09.888Z</time></trkpt><trkpt lat="43.1991108" lon="13.1682112"><ele>792.0</ele><time>2026-05-02T10:18:12.889Z</time></trkpt><trkpt lat="43.1991909" lon="13.1682202"><ele>792.0</ele><time>2026-05-02T10:18:17.889Z</time></trkpt><trkpt lat="43.1992552" lon="13.1682816"><ele>792.0</ele><time>2026-05-02T10:18:20.889Z</time></trkpt><trkpt lat="43.1992906" lon="13.1683809"><ele>792.0</ele><time>2026-05-02T10:18:23.889Z</time></trkpt><trkpt lat="43.1993694" lon="13.1684478"><ele>792.0</ele><time>2026-05-02T10:18:26.889Z</time></trkpt><trkpt lat="43.1994374" lon="13.1684829"><ele>792.0</ele><time>2026-05-02T10:18:28.888Z</time></trkpt><trkpt lat="43.199485" lon="13.168577"><ele>792.0</ele><time>2026-05-02T10:18:31.889Z</time></trkpt><trkpt lat="43.1995099" lon="13.1686892"><ele>792.0</ele><time>2026-05-02T10:18:34.888Z</time></trkpt><trkpt lat="43.199544" lon="13.1687841"><ele>792.0</ele><time>2026-05-02T10:18:37.889Z</time></trkpt><trkpt lat="43.1996081" lon="13.1688292"><ele>792.0</ele><time>2026-05-02T10:18:41.889Z</time></trkpt><trkpt lat="43.1996318" lon="13.1689255"><ele>792.0</ele><time>2026-05-02T10:18:45.888Z</time></trkpt><trkpt lat="43.1996865" lon="13.1689787"><ele>792.0</ele><time>2026-05-02T10:18:49.888Z</time></trkpt><trkpt lat="43.1997058" lon="13.1690756"><ele>792.0</ele><time>2026-05-02T10:18:51.888Z</time></trkpt><trkpt lat="43.1997472" lon="13.1691583"><ele>792.0</ele><time>2026-05-02T10:18:53.889Z</time></trkpt><trkpt lat="43.1997951" lon="13.1692785"><ele>792.0</ele><time>2026-05-02T10:18:55.889Z</time></trkpt><trkpt lat="43.1998276" lon="13.1693718"><ele>792.0</ele><time>2026-05-02T10:18:57.889Z</time></trkpt><trkpt lat="43.1998609" lon="13.1694712"><ele>790.3333333333334</ele><time>2026-05-02T10:18:59.888Z</time></trkpt><trkpt lat="43.1999047" lon="13.1695842"><ele>788.6666666666667</ele><time>2026-05-02T10:19:02.889Z</time></trkpt><trkpt lat="43.1999788" lon="13.1695855"><ele>787.0</ele><time>2026-05-02T10:19:05.888Z</time></trkpt><trkpt lat="43.2000576" lon="13.1696054"><ele>785.3333333333334</ele><time>2026-05-02T10:19:08.89Z</time></trkpt><trkpt lat="43.2001235" lon="13.1696359"><ele>783.6666666666667</ele><time>2026-05-02T10:19:11.889Z</time></trkpt><trkpt lat="43.2001843" lon="13.1696654"><ele>782.0</ele><time>2026-05-02T10:19:14.888Z</time></trkpt><trkpt lat="43.2002442" lon="13.1697531"><ele>782.0000000000001</ele><time>2026-05-02T10:19:20.888Z</time></trkpt><trkpt lat="43.2002759" lon="13.1698554"><ele>782.0</ele><time>2026-05-02T10:19:24.889Z</time></trkpt><trkpt lat="43.2003338" lon="13.1699187"><ele>782.0</ele><time>2026-05-02T10:19:27.89Z</time></trkpt><trkpt lat="43.2003629" lon="13.1700134"><ele>782.0</ele><time>2026-05-02T10:19:30.888Z</time></trkpt><trkpt lat="43.2003905" lon="13.1701013"><ele>782.0000000000001</ele><time>2026-05-02T10:19:32.89Z</time></trkpt><trkpt lat="43.2004231" lon="13.170208"><ele>782.0</ele><time>2026-05-02T10:19:35.888Z</time></trkpt><trkpt lat="43.2004944" lon="13.1702643"><ele>782.1666666666667</ele><time>2026-05-02T10:19:38.888Z</time></trkpt><trkpt lat="43.2005059" lon="13.1703564"><ele>782.3333333333334</ele><time>2026-05-02T10:21:14.888Z</time></trkpt><trkpt lat="43.2005292" lon="13.1704464"><ele>782.5</ele><time>2026-05-02T10:21:16.888Z</time></trkpt><trkpt lat="43.200596" lon="13.1705064"><ele>782.6666666666667</ele><time>2026-05-02T10:21:18.889Z</time></trkpt><trkpt lat="43.2007024" lon="13.1705444"><ele>782.8333333333334</ele><time>2026-05-02T10:21:20.889Z</time></trkpt><trkpt lat="43.2007917" lon="13.1705506"><ele>783.0</ele><time>2026-05-02T10:21:22.889Z</time></trkpt><trkpt lat="43.2008824" lon="13.1706075"><ele>781.1428571428571</ele><time>2026-05-02T10:21:24.888Z</time></trkpt><trkpt lat="43.2009431" lon="13.1706806"><ele>779.2857142857143</ele><time>2026-05-02T10:21:26.888Z</time></trkpt><trkpt lat="43.2009714" lon="13.170761"><ele>777.4285714285714</ele><time>2026-05-02T10:21:28.889Z</time></trkpt><trkpt lat="43.2009845" lon="13.1708612"><ele>775.5714285714286</ele><time>2026-05-02T10:21:31.889Z</time></trkpt><trkpt lat="43.2009596" lon="13.1709558"><ele>773.7142857142858</ele><time>2026-05-02T10:21:34.889Z</time></trkpt><trkpt lat="43.2009817" lon="13.1710431"><ele>771.8571428571429</ele><time>2026-05-02T10:21:37.889Z</time></trkpt><trkpt lat="43.2009854" lon="13.1711341"><ele>770.0</ele><time>2026-05-02T10:21:40.889Z</time></trkpt><trkpt lat="43.2009997" lon="13.1712193"><ele>769.4285714285714</ele><time>2026-05-02T10:21:47.889Z</time></trkpt><trkpt lat="43.2010366" lon="13.1711391"><ele>768.8571428571429</ele><time>2026-05-02T10:21:56.888Z</time></trkpt><trkpt lat="43.2010753" lon="13.1710625"><ele>768.2857142857142</ele><time>2026-05-02T10:22:02.888Z</time></trkpt><trkpt lat="43.201136" lon="13.1710273"><ele>767.7142857142858</ele><time>2026-05-02T10:22:05.889Z</time></trkpt><trkpt lat="43.2012051" lon="13.1709841"><ele>767.1428571428571</ele><time>2026-05-02T10:22:09.889Z</time></trkpt><trkpt lat="43.2012533" lon="13.1710552"><ele>766.5714285714286</ele><time>2026-05-02T10:22:22.888Z</time></trkpt><trkpt lat="43.2013075" lon="13.1711469"><ele>766.0</ele><time>2026-05-02T10:22:26.889Z</time></trkpt><trkpt lat="43.2013599" lon="13.1711961"><ele>766.0</ele><time>2026-05-02T10:22:29.888Z</time></trkpt><trkpt lat="43.2014369" lon="13.1712501"><ele>766.0</ele><time>2026-05-02T10:22:31.889Z</time></trkpt><trkpt lat="43.2014982" lon="13.1712995"><ele>766.0</ele><time>2026-05-02T10:22:33.889Z</time></trkpt><trkpt lat="43.2015548" lon="13.1713476"><ele>766.0</ele><time>2026-05-02T10:22:35.889Z</time></trkpt><trkpt lat="43.2016351" lon="13.1713722"><ele>766.0</ele><time>2026-05-02T10:22:37.888Z</time></trkpt><trkpt lat="43.2017015" lon="13.1713293"><ele>766.0</ele><time>2026-05-02T10:22:39.889Z</time></trkpt><trkpt lat="43.2017744" lon="13.1712548"><ele>763.5999999999999</ele><time>2026-05-02T10:22:51.888Z</time></trkpt><trkpt lat="43.2018183" lon="13.1711545"><ele>761.2</ele><time>2026-05-02T10:22:53.888Z</time></trkpt><trkpt lat="43.2018518" lon="13.1710535"><ele>758.8</ele><time>2026-05-02T10:22:55.888Z</time></trkpt><trkpt lat="43.2019234" lon="13.1709542"><ele>756.4000000000001</ele><time>2026-05-02T10:22:57.889Z</time></trkpt><trkpt lat="43.2019932" lon="13.1708607"><ele>754.0</ele><time>2026-05-02T10:22:59.889Z</time></trkpt><trkpt lat="43.2020206" lon="13.1707415"><ele>755.1666666666667</ele><time>2026-05-02T10:23:02.889Z</time></trkpt><trkpt lat="43.2020297" lon="13.1706323"><ele>756.3333333333334</ele><time>2026-05-02T10:23:04.889Z</time></trkpt><trkpt lat="43.2020703" lon="13.1705399"><ele>757.5</ele><time>2026-05-02T10:23:06.888Z</time></trkpt><trkpt lat="43.2021252" lon="13.1704236"><ele>758.6666666666666</ele><time>2026-05-02T10:23:08.888Z</time></trkpt><trkpt lat="43.2021978" lon="13.1703622"><ele>759.8333333333333</ele><time>2026-05-02T10:23:11.888Z</time></trkpt><trkpt lat="43.2022756" lon="13.1703858"><ele>761.0</ele><time>2026-05-02T10:23:13.889Z</time></trkpt><trkpt lat="43.2023751" lon="13.1703747"><ele>761.0</ele><time>2026-05-02T10:23:15.889Z</time></trkpt><trkpt lat="43.2024663" lon="13.1703548"><ele>761.0</ele><time>2026-05-02T10:23:17.889Z</time></trkpt><trkpt lat="43.2025409" lon="13.1703366"><ele>761.0</ele><time>2026-05-02T10:23:19.888Z</time></trkpt><trkpt lat="43.2026367" lon="13.1703248"><ele>761.0</ele><time>2026-05-02T10:23:21.888Z</time></trkpt><trkpt lat="43.2027175" lon="13.1703064"><ele>761.0</ele><time>2026-05-02T10:23:23.888Z</time></trkpt><trkpt lat="43.2027804" lon="13.1702774"><ele>761.0</ele><time>2026-05-02T10:23:25.889Z</time></trkpt><trkpt lat="43.2028445" lon="13.1702741"><ele>760.9999999999999</ele><time>2026-05-02T10:24:18.888Z</time></trkpt><trkpt lat="43.2028283" lon="13.1703752"><ele>761.0</ele><time>2026-05-02T10:35:31.887Z</time></trkpt><trkpt lat="43.2027667" lon="13.1703561"><ele>761.0</ele><time>2026-05-02T10:35:35.887Z</time></trkpt><trkpt lat="43.2028076" lon="13.1702771"><ele>761.0</ele><time>2026-05-02T10:35:38.887Z</time></trkpt><trkpt lat="43.2028755" lon="13.1702859"><ele>761.0</ele><time>2026-05-02T10:35:42.887Z</time></trkpt><trkpt lat="43.2028312" lon="13.1701998"><ele>760.9999999999999</ele><time>2026-05-02T10:37:48.887Z</time></trkpt><trkpt lat="43.2027916" lon="13.1700834"><ele>761.0</ele><time>2026-05-02T10:37:51.887Z</time></trkpt><trkpt lat="43.2027489" lon="13.1699963"><ele>761.0</ele><time>2026-05-02T10:37:53.887Z</time></trkpt><trkpt lat="43.2026956" lon="13.1698789"><ele>761.0</ele><time>2026-05-02T10:37:55.887Z</time></trkpt><trkpt lat="43.2026514" lon="13.1697655"><ele>761.0</ele><time>2026-05-02T10:37:57.887Z</time></trkpt><trkpt lat="43.2025999" lon="13.1696502"><ele>761.0</ele><time>2026-05-02T10:37:59.887Z</time></trkpt><trkpt lat="43.2025514" lon="13.1695311"><ele>761.0</ele><time>2026-05-02T10:38:01.887Z</time></trkpt><trkpt lat="43.2024994" lon="13.1694251"><ele>762.3333333333333</ele><time>2026-05-02T10:38:03.888Z</time></trkpt><trkpt lat="43.2024556" lon="13.1693465"><ele>763.6666666666666</ele><time>2026-05-02T10:38:05.888Z</time></trkpt><trkpt lat="43.2024241" lon="13.1692484"><ele>765.0</ele><time>2026-05-02T10:38:07.888Z</time></trkpt><trkpt lat="43.2023892" lon="13.1691498"><ele>766.3333333333333</ele><time>2026-05-02T10:38:09.887Z</time></trkpt><trkpt lat="43.2023465" lon="13.1690272"><ele>767.6666666666666</ele><time>2026-05-02T10:38:11.888Z</time></trkpt><trkpt lat="43.2022838" lon="13.1689279"><ele>769.0</ele><time>2026-05-02T10:38:13.887Z</time></trkpt><trkpt lat="43.2022265" lon="13.1688451"><ele>770.3333333333333</ele><time>2026-05-02T10:38:15.887Z</time></trkpt><trkpt lat="43.2021802" lon="13.1687382"><ele>771.6666666666666</ele><time>2026-05-02T10:38:18.888Z</time></trkpt><trkpt lat="43.2021866" lon="13.1686154"><ele>773.0</ele><time>2026-05-02T10:38:23.887Z</time></trkpt><trkpt lat="43.2021611" lon="13.1685026"><ele>774.3333333333333</ele><time>2026-05-02T10:38:25.887Z</time></trkpt><trkpt lat="43.2021213" lon="13.1683901"><ele>775.6666666666666</ele><time>2026-05-02T10:38:28.887Z</time></trkpt><trkpt lat="43.2020771" lon="13.1683148"><ele>777.0</ele><time>2026-05-02T10:38:30.887Z</time></trkpt><trkpt lat="43.2020546" lon="13.1682259"><ele>777.8333333333334</ele><time>2026-05-02T10:38:33.886Z</time></trkpt><trkpt lat="43.2020198" lon="13.1681366"><ele>778.6666666666667</ele><time>2026-05-02T10:38:36.886Z</time></trkpt><trkpt lat="43.2019911" lon="13.1680591"><ele>779.5</ele><time>2026-05-02T10:38:38.887Z</time></trkpt><trkpt lat="43.2019596" lon="13.1679558"><ele>780.3333333333334</ele><time>2026-05-02T10:38:41.887Z</time></trkpt><trkpt lat="43.2019336" lon="13.1678368"><ele>781.1666666666667</ele><time>2026-05-02T10:38:44.886Z</time></trkpt><trkpt lat="43.2018954" lon="13.1677661"><ele>782.0</ele><time>2026-05-02T10:38:46.887Z</time></trkpt><trkpt lat="43.2018527" lon="13.1676742"><ele>782.0000000000001</ele><time>2026-05-02T10:38:48.886Z</time></trkpt><trkpt lat="43.2018222" lon="13.1675935"><ele>782.0</ele><time>2026-05-02T10:38:50.886Z</time></trkpt><trkpt lat="43.2017731" lon="13.1674869"><ele>782.0</ele><time>2026-05-02T10:38:52.887Z</time></trkpt><trkpt lat="43.2017408" lon="13.1673791"><ele>782.0</ele><time>2026-05-02T10:38:54.887Z</time></trkpt><trkpt lat="43.2017049" lon="13.1672782"><ele>782.0000000000001</ele><time>2026-05-02T10:38:56.887Z</time></trkpt><trkpt lat="43.2017" lon="13.167189"><ele>782.0</ele><time>2026-05-02T10:39:04.886Z</time></trkpt><trkpt lat="43.2017944" lon="13.167211"><ele>782.6666666666667</ele><time>2026-05-02T10:39:09.886Z</time></trkpt><trkpt lat="43.2018655" lon="13.1672443"><ele>783.3333333333334</ele><time>2026-05-02T10:39:11.887Z</time></trkpt><trkpt lat="43.2019273" lon="13.1672629"><ele>784.0</ele><time>2026-05-02T10:39:13.887Z</time></trkpt><trkpt lat="43.2020209" lon="13.1672633"><ele>784.6666666666667</ele><time>2026-05-02T10:39:19.887Z</time></trkpt><trkpt lat="43.2020899" lon="13.1671929"><ele>785.3333333333334</ele><time>2026-05-02T10:39:21.888Z</time></trkpt><trkpt lat="43.2021647" lon="13.1671184"><ele>786.0</ele><time>2026-05-02T10:39:23.887Z</time></trkpt><trkpt lat="43.2022219" lon="13.1670675"><ele>786.0</ele><time>2026-05-02T10:39:24.887Z</time></trkpt><trkpt lat="43.2023228" lon="13.1669795"><ele>786.0</ele><time>2026-05-02T10:39:26.887Z</time></trkpt><trkpt lat="43.2024017" lon="13.1668737"><ele>786.0</ele><time>2026-05-02T10:39:28.887Z</time></trkpt><trkpt lat="43.2024583" lon="13.1667663"><ele>786.0</ele><time>2026-05-02T10:39:30.887Z</time></trkpt><trkpt lat="43.202515" lon="13.1668397"><ele>786.0</ele><time>2026-05-02T10:40:22.887Z</time></trkpt><trkpt lat="43.2024789" lon="13.166966"><ele>786.0</ele><time>2026-05-02T10:40:23.886Z</time></trkpt><trkpt lat="43.2024311" lon="13.1670272"><ele>786.0</ele><time>2026-05-02T10:40:24.887Z</time></trkpt><trkpt lat="43.2023342" lon="13.1671024"><ele>786.0</ele><time>2026-05-02T10:40:26.888Z</time></trkpt><trkpt lat="43.2022355" lon="13.1671519"><ele>786.0</ele><time>2026-05-02T10:40:28.886Z</time></trkpt><trkpt lat="43.2021536" lon="13.1672016"><ele>786.0</ele><time>2026-05-02T10:40:30.886Z</time></trkpt><trkpt lat="43.202087" lon="13.167247"><ele>786.0</ele><time>2026-05-02T10:40:32.887Z</time></trkpt><trkpt lat="43.2020247" lon="13.1672633"><ele>786.0000000000001</ele><time>2026-05-02T10:40:34.886Z</time></trkpt><trkpt lat="43.201991" lon="13.1673558"><ele>786.0</ele><time>2026-05-02T10:40:42.887Z</time></trkpt><trkpt lat="43.202019" lon="13.1674629"><ele>786.0</ele><time>2026-05-02T10:41:01.886Z</time></trkpt><trkpt lat="43.2020735" lon="13.1675242"><ele>786.0</ele><time>2026-05-02T10:41:04.888Z</time></trkpt><trkpt lat="43.2021058" lon="13.1676033"><ele>786.0</ele><time>2026-05-02T10:41:07.886Z</time></trkpt><trkpt lat="43.2021336" lon="13.1676899"><ele>786.0000000000001</ele><time>2026-05-02T10:41:10.888Z</time></trkpt><trkpt lat="43.2021846" lon="13.1677613"><ele>786.0</ele><time>2026-05-02T10:41:13.887Z</time></trkpt><trkpt lat="43.2022508" lon="13.1678288"><ele>785.3333333333334</ele><time>2026-05-02T10:41:16.886Z</time></trkpt><trkpt lat="43.2023018" lon="13.1679412"><ele>784.6666666666667</ele><time>2026-05-02T10:41:19.886Z</time></trkpt><trkpt lat="43.2023124" lon="13.1680267"><ele>784.0</ele><time>2026-05-02T10:41:31.887Z</time></trkpt><trkpt lat="43.2023219" lon="13.1681257"><ele>783.3333333333334</ele><time>2026-05-02T10:41:34.886Z</time></trkpt><trkpt lat="43.20234" lon="13.1682295"><ele>782.6666666666667</ele><time>2026-05-02T10:41:38.887Z</time></trkpt><trkpt lat="43.2023663" lon="13.1683191"><ele>782.0</ele><time>2026-05-02T10:41:42.887Z</time></trkpt><trkpt lat="43.2024383" lon="13.1683872"><ele>780.9999999999999</ele><time>2026-05-02T10:41:46.886Z</time></trkpt><trkpt lat="43.2024957" lon="13.1684287"><ele>780.0</ele><time>2026-05-02T10:41:49.886Z</time></trkpt><trkpt lat="43.2024922" lon="13.1685249"><ele>779.0</ele><time>2026-05-02T10:41:52.887Z</time></trkpt><trkpt lat="43.2024883" lon="13.1686231"><ele>778.0</ele><time>2026-05-02T10:41:54.887Z</time></trkpt><trkpt lat="43.2025133" lon="13.168723"><ele>777.0</ele><time>2026-05-02T10:41:57.887Z</time></trkpt><trkpt lat="43.202558" lon="13.1688122"><ele>775.9999999999999</ele><time>2026-05-02T10:42:00.887Z</time></trkpt><trkpt lat="43.2026059" lon="13.1689094"><ele>775.0</ele><time>2026-05-02T10:42:03.887Z</time></trkpt><trkpt lat="43.2026417" lon="13.1689987"><ele>773.9999999999999</ele><time>2026-05-02T10:42:06.887Z</time></trkpt><trkpt lat="43.20269" lon="13.1691155"><ele>773.0</ele><time>2026-05-02T10:42:09.886Z</time></trkpt><trkpt lat="43.2027249" lon="13.1691914"><ele>772.0</ele><time>2026-05-02T10:42:11.886Z</time></trkpt><trkpt lat="43.2027619" lon="13.1692929"><ele>771.0</ele><time>2026-05-02T10:42:15.887Z</time></trkpt><trkpt lat="43.2027924" lon="13.1693814"><ele>769.9999999999999</ele><time>2026-05-02T10:42:18.887Z</time></trkpt><trkpt lat="43.2028207" lon="13.1694859"><ele>769.0</ele><time>2026-05-02T10:42:21.886Z</time></trkpt><trkpt lat="43.2028779" lon="13.1695595"><ele>769.0</ele><time>2026-05-02T10:42:24.887Z</time></trkpt><trkpt lat="43.2029638" lon="13.1695121"><ele>769.0</ele><time>2026-05-02T10:42:26.886Z</time></trkpt><trkpt lat="43.2030897" lon="13.1694518"><ele>769.0</ele><time>2026-05-02T10:42:28.887Z</time></trkpt><trkpt lat="43.2031605" lon="13.1694139"><ele>769.0</ele><time>2026-05-02T10:42:29.887Z</time></trkpt><trkpt lat="43.2032313" lon="13.1693842"><ele>769.0</ele><time>2026-05-02T10:42:30.886Z</time></trkpt><trkpt lat="43.2033038" lon="13.1693451"><ele>769.0</ele><time>2026-05-02T10:42:31.887Z</time></trkpt><trkpt lat="43.2033808" lon="13.1692987"><ele>769.0</ele><time>2026-05-02T10:42:33.887Z</time></trkpt><trkpt lat="43.2033045" lon="13.1693564"><ele>769.0</ele><time>2026-05-02T10:42:44.887Z</time></trkpt><trkpt lat="43.2032403" lon="13.1694347"><ele>769.0</ele><time>2026-05-02T10:42:46.886Z</time></trkpt><trkpt lat="43.2031236" lon="13.1694811"><ele>769.0</ele><time>2026-05-02T10:42:48.887Z</time></trkpt><trkpt lat="43.2030095" lon="13.1695159"><ele>768.9999999999999</ele><time>2026-05-02T10:42:50.887Z</time></trkpt><trkpt lat="43.2029445" lon="13.1695783"><ele>769.0</ele><time>2026-05-02T10:42:52.887Z</time></trkpt><trkpt lat="43.2029089" lon="13.1696607"><ele>769.0</ele><time>2026-05-02T10:42:55.887Z</time></trkpt><trkpt lat="43.2029132" lon="13.1697654"><ele>769.0</ele><time>2026-05-02T10:42:58.886Z</time></trkpt><trkpt lat="43.2029695" lon="13.169855"><ele>768.9999999999999</ele><time>2026-05-02T10:43:02.886Z</time></trkpt><trkpt lat="43.2029965" lon="13.1699557"><ele>769.0</ele><time>2026-05-02T10:43:06.885Z</time></trkpt><trkpt lat="43.2030181" lon="13.1700667"><ele>767.6666666666666</ele><time>2026-05-02T10:43:10.887Z</time></trkpt><trkpt lat="43.2030741" lon="13.1701371"><ele>766.3333333333333</ele><time>2026-05-02T10:43:13.886Z</time></trkpt><trkpt lat="43.2031334" lon="13.1701682"><ele>765.0</ele><time>2026-05-02T10:43:16.886Z</time></trkpt><trkpt lat="43.2032041" lon="13.1701183"><ele>763.6666666666666</ele><time>2026-05-02T10:43:22.887Z</time></trkpt><trkpt lat="43.2032366" lon="13.1700082"><ele>762.3333333333333</ele><time>2026-05-02T10:43:25.887Z</time></trkpt><trkpt lat="43.2032683" lon="13.1699309"><ele>761.0</ele><time>2026-05-02T10:43:29.886Z</time></trkpt><trkpt lat="43.2032983" lon="13.1700462"><ele>760.1666666666666</ele><time>2026-05-02T10:43:35.887Z</time></trkpt><trkpt lat="43.2033175" lon="13.170144"><ele>759.3333333333333</ele><time>2026-05-02T10:43:37.886Z</time></trkpt><trkpt lat="43.2033372" lon="13.1702585"><ele>758.5</ele><time>2026-05-02T10:43:40.887Z</time></trkpt><trkpt lat="43.2033563" lon="13.1703781"><ele>757.6666666666666</ele><time>2026-05-02T10:43:43.887Z</time></trkpt><trkpt lat="43.2033745" lon="13.1704947"><ele>756.8333333333334</ele><time>2026-05-02T10:43:46.887Z</time></trkpt><trkpt lat="43.203414" lon="13.1705889"><ele>756.0</ele><time>2026-05-02T10:43:49.887Z</time></trkpt><trkpt lat="43.2034697" lon="13.1706453"><ele>756.0</ele><time>2026-05-02T10:43:59.887Z</time></trkpt><trkpt lat="43.2034966" lon="13.1707378"><ele>756.0</ele><time>2026-05-02T10:44:06.887Z</time></trkpt><trkpt lat="43.2035609" lon="13.1707168"><ele>756.0</ele><time>2026-05-02T10:44:15.886Z</time></trkpt><trkpt lat="43.2036287" lon="13.1707285"><ele>756.0</ele><time>2026-05-02T10:44:20.886Z</time></trkpt><trkpt lat="43.2036799" lon="13.1706706"><ele>756.0</ele><time>2026-05-02T10:44:28.887Z</time></trkpt><trkpt lat="43.203719" lon="13.1705695"><ele>756.0</ele><time>2026-05-02T10:44:51.887Z</time></trkpt><trkpt lat="43.2037478" lon="13.1704726"><ele>756.0</ele><time>2026-05-02T10:45:07.887Z</time></trkpt><trkpt lat="43.2038046" lon="13.1704132"><ele>756.0</ele><time>2026-05-02T10:45:12.886Z</time></trkpt><trkpt lat="43.2038684" lon="13.1704196"><ele>756.0</ele><time>2026-05-02T10:45:15.887Z</time></trkpt><trkpt lat="43.2039722" lon="13.170431"><ele>756.0</ele><time>2026-05-02T10:45:17.887Z</time></trkpt><trkpt lat="43.204029" lon="13.1705052"><ele>756.0</ele><time>2026-05-02T10:45:20.886Z</time></trkpt><trkpt lat="43.2040757" lon="13.1705741"><ele>756.0</ele><time>2026-05-02T10:45:23.886Z</time></trkpt><trkpt lat="43.2041302" lon="13.1706603"><ele>756.0</ele><time>2026-05-02T10:45:25.887Z</time></trkpt><trkpt lat="43.2041624" lon="13.1707736"><ele>753.0</ele><time>2026-05-02T10:45:27.887Z</time></trkpt><trkpt lat="43.2042361" lon="13.1708067"><ele>750.0</ele><time>2026-05-02T10:45:30.887Z</time></trkpt><trkpt lat="43.2043213" lon="13.1707377"><ele>747.0</ele><time>2026-05-02T10:45:33.886Z</time></trkpt><trkpt lat="43.2044045" lon="13.170714"><ele>744.0</ele><time>2026-05-02T10:45:37.887Z</time></trkpt><trkpt lat="43.2044808" lon="13.1707763"><ele>741.0</ele><time>2026-05-02T10:45:40.886Z</time></trkpt><trkpt lat="43.2045214" lon="13.1708806"><ele>738.0</ele><time>2026-05-02T10:45:43.887Z</time></trkpt><trkpt lat="43.2045637" lon="13.1709703"><ele>738.0</ele><time>2026-05-02T10:45:46.886Z</time></trkpt><trkpt lat="43.2046477" lon="13.1709728"><ele>738.0</ele><time>2026-05-02T10:45:49.886Z</time></trkpt><trkpt lat="43.2047278" lon="13.1709573"><ele>738.0</ele><time>2026-05-02T10:45:53.887Z</time></trkpt><trkpt lat="43.204792" lon="13.1709671"><ele>738.0</ele><time>2026-05-02T10:46:20.887Z</time></trkpt><trkpt lat="43.2048221" lon="13.1710448"><ele>738.0</ele><time>2026-05-02T10:46:23.886Z</time></trkpt><trkpt lat="43.2048467" lon="13.1711364"><ele>738.0</ele><time>2026-05-02T10:46:27.886Z</time></trkpt><trkpt lat="43.204884" lon="13.1712252"><ele>738.0</ele><time>2026-05-02T10:46:31.887Z</time></trkpt><trkpt lat="43.2049107" lon="13.1713135"><ele>736.5</ele><time>2026-05-02T10:46:35.887Z</time></trkpt><trkpt lat="43.2049578" lon="13.1713907"><ele>735.0</ele><time>2026-05-02T10:46:38.885Z</time></trkpt><trkpt lat="43.2049569" lon="13.1712694"><ele>733.5</ele><time>2026-05-02T10:46:47.887Z</time></trkpt><trkpt lat="43.2049128" lon="13.1711655"><ele>732.0</ele><time>2026-05-02T10:46:50.887Z</time></trkpt><trkpt lat="43.2049746" lon="13.1710827"><ele>730.5</ele><time>2026-05-02T10:46:54.887Z</time></trkpt><trkpt lat="43.2050446" lon="13.1710245"><ele>729.0</ele><time>2026-05-02T10:46:56.885Z</time></trkpt><trkpt lat="43.2050972" lon="13.1709712"><ele>729.0</ele><time>2026-05-02T10:46:58.886Z</time></trkpt><trkpt lat="43.2051816" lon="13.1709604"><ele>729.0</ele><time>2026-05-02T10:47:01.886Z</time></trkpt><trkpt lat="43.2052565" lon="13.1708708"><ele>729.0</ele><time>2026-05-02T10:47:04.885Z</time></trkpt><trkpt lat="43.2053176" lon="13.1707985"><ele>729.0</ele><time>2026-05-02T10:47:06.887Z</time></trkpt><trkpt lat="43.205357" lon="13.1707305"><ele>729.0</ele><time>2026-05-02T10:47:08.886Z</time></trkpt><trkpt lat="43.2054223" lon="13.1707137"><ele>729.0</ele><time>2026-05-02T10:47:10.885Z</time></trkpt><trkpt lat="43.2054916" lon="13.1707385"><ele>729.0</ele><time>2026-05-02T10:47:12.885Z</time></trkpt><trkpt lat="43.2055549" lon="13.1707055"><ele>729.0</ele><time>2026-05-02T10:47:14.886Z</time></trkpt><trkpt lat="43.2056219" lon="13.1706577"><ele>729.0</ele><time>2026-05-02T10:47:16.886Z</time></trkpt><trkpt lat="43.2057079" lon="13.1706384"><ele>729.0</ele><time>2026-05-02T10:47:19.885Z</time></trkpt><trkpt lat="43.2057728" lon="13.1706501"><ele>729.0</ele><time>2026-05-02T10:47:22.885Z</time></trkpt><trkpt lat="43.2058388" lon="13.1706409"><ele>729.0</ele><time>2026-05-02T10:48:25.886Z</time></trkpt><trkpt lat="43.2058974" lon="13.1706063"><ele>729.0</ele><time>2026-05-02T10:48:27.885Z</time></trkpt><trkpt lat="43.2059692" lon="13.170578"><ele>727.0</ele><time>2026-05-02T10:48:29.886Z</time></trkpt><trkpt lat="43.2060606" lon="13.1705583"><ele>725.0</ele><time>2026-05-02T10:48:31.886Z</time></trkpt><trkpt lat="43.2061479" lon="13.1705549"><ele>723.0</ele><time>2026-05-02T10:48:33.885Z</time></trkpt><trkpt lat="43.2062203" lon="13.1705931"><ele>721.0</ele><time>2026-05-02T10:48:35.886Z</time></trkpt><trkpt lat="43.2062896" lon="13.1706375"><ele>719.0</ele><time>2026-05-02T10:48:37.885Z</time></trkpt><trkpt lat="43.2063566" lon="13.1706527"><ele>717.0</ele><time>2026-05-02T10:48:39.885Z</time></trkpt><trkpt lat="43.2064255" lon="13.1706602"><ele>714.0</ele><time>2026-05-02T10:48:41.886Z</time></trkpt><trkpt lat="43.2064949" lon="13.1706787"><ele>711.0</ele><time>2026-05-02T10:48:43.885Z</time></trkpt><trkpt lat="43.2065544" lon="13.1707174"><ele>708.0</ele><time>2026-05-02T10:48:45.886Z</time></trkpt><trkpt lat="43.2066134" lon="13.1707511"><ele>705.0</ele><time>2026-05-02T10:48:48.886Z</time></trkpt><trkpt lat="43.2066895" lon="13.170725"><ele>702.0</ele><time>2026-05-02T10:48:51.886Z</time></trkpt><trkpt lat="43.2067431" lon="13.1706781"><ele>699.0</ele><time>2026-05-02T10:49:13.886Z</time></trkpt><trkpt lat="43.2068168" lon="13.1706909"><ele>696.0</ele><time>2026-05-02T10:49:16.886Z</time></trkpt><trkpt lat="43.2068808" lon="13.170637"><ele>696.0</ele><time>2026-05-02T10:49:19.885Z</time></trkpt><trkpt lat="43.2069577" lon="13.1705901"><ele>696.0</ele><time>2026-05-02T10:49:22.886Z</time></trkpt><trkpt lat="43.2070223" lon="13.1706368"><ele>696.0</ele><time>2026-05-02T10:49:35.887Z</time></trkpt><trkpt lat="43.2070488" lon="13.1707436"><ele>696.0</ele><time>2026-05-02T10:49:39.887Z</time></trkpt><trkpt lat="43.2070801" lon="13.1708203"><ele>696.0</ele><time>2026-05-02T10:51:35.886Z</time></trkpt><trkpt lat="43.2071173" lon="13.1708903"><ele>696.0</ele><time>2026-05-02T10:51:38.886Z</time></trkpt><trkpt lat="43.2071753" lon="13.1709853"><ele>694.6666666666666</ele><time>2026-05-02T10:51:41.886Z</time></trkpt><trkpt lat="43.2072315" lon="13.1710559"><ele>693.3333333333334</ele><time>2026-05-02T10:51:43.886Z</time></trkpt><trkpt lat="43.2072976" lon="13.1711097"><ele>692.0</ele><time>2026-05-02T10:51:45.886Z</time></trkpt><trkpt lat="43.2073723" lon="13.1711339"><ele>690.6666666666667</ele><time>2026-05-02T10:51:47.886Z</time></trkpt><trkpt lat="43.2074459" lon="13.1711063"><ele>689.3333333333334</ele><time>2026-05-02T10:51:49.817Z</time></trkpt><trkpt lat="43.207525" lon="13.1710468"><ele>688.0</ele><time>2026-05-02T10:51:51.87Z</time></trkpt><trkpt lat="43.2076122" lon="13.1710201"><ele>686.1666666666667</ele><time>2026-05-02T10:51:53.886Z</time></trkpt><trkpt lat="43.2076892" lon="13.1710206"><ele>684.3333333333334</ele><time>2026-05-02T10:51:55.892Z</time></trkpt><trkpt lat="43.2077614" lon="13.1710502"><ele>682.5</ele><time>2026-05-02T10:51:57.886Z</time></trkpt><trkpt lat="43.2078445" lon="13.1710773"><ele>680.6666666666666</ele><time>2026-05-02T10:51:59.885Z</time></trkpt><trkpt lat="43.2079392" lon="13.1711005"><ele>678.8333333333333</ele><time>2026-05-02T10:52:01.885Z</time></trkpt><trkpt lat="43.2080385" lon="13.1710983"><ele>677.0</ele><time>2026-05-02T10:52:03.885Z</time></trkpt><trkpt lat="43.2081407" lon="13.1710636"><ele>674.6</ele><time>2026-05-02T10:52:05.885Z</time></trkpt><trkpt lat="43.2082255" lon="13.1710347"><ele>672.2</ele><time>2026-05-02T10:52:07.886Z</time></trkpt><trkpt lat="43.208331" lon="13.1709934"><ele>669.8</ele><time>2026-05-02T10:52:09.885Z</time></trkpt><trkpt lat="43.2084233" lon="13.1709593"><ele>667.4</ele><time>2026-05-02T10:52:11.885Z</time></trkpt><trkpt lat="43.2085197" lon="13.1709476"><ele>665.0</ele><time>2026-05-02T10:52:13.886Z</time></trkpt><trkpt lat="43.2086169" lon="13.1709927"><ele>665.0</ele><time>2026-05-02T10:52:15.885Z</time></trkpt><trkpt lat="43.2086646" lon="13.1710547"><ele>665.0</ele><time>2026-05-02T10:52:17.885Z</time></trkpt><trkpt lat="43.2087225" lon="13.1711588"><ele>665.0</ele><time>2026-05-02T10:52:19.885Z</time></trkpt><trkpt lat="43.2087713" lon="13.1712518"><ele>665.0</ele><time>2026-05-02T10:52:21.886Z</time></trkpt><trkpt lat="43.208855" lon="13.1712991"><ele>665.0</ele><time>2026-05-02T10:52:24.886Z</time></trkpt><trkpt lat="43.2089275" lon="13.1712674"><ele>665.0</ele><time>2026-05-02T10:52:26.885Z</time></trkpt><trkpt lat="43.2090093" lon="13.1712663"><ele>663.8333333333333</ele><time>2026-05-02T10:52:28.886Z</time></trkpt><trkpt lat="43.2090842" lon="13.1713407"><ele>662.6666666666666</ele><time>2026-05-02T10:52:30.885Z</time></trkpt><trkpt lat="43.2091361" lon="13.1714085"><ele>661.5</ele><time>2026-05-02T10:52:32.792Z</time></trkpt><trkpt lat="43.2091992" lon="13.1714917"><ele>660.3333333333334</ele><time>2026-05-02T10:52:34.885Z</time></trkpt><trkpt lat="43.2092738" lon="13.1715429"><ele>659.1666666666667</ele><time>2026-05-02T10:52:36.885Z</time></trkpt><trkpt lat="43.2093567" lon="13.1715595"><ele>658.0</ele><time>2026-05-02T10:52:38.857Z</time></trkpt><trkpt lat="43.2094373" lon="13.171556"><ele>653.8</ele><time>2026-05-02T10:52:40.834Z</time></trkpt><trkpt lat="43.2095371" lon="13.1715682"><ele>649.5999999999999</ele><time>2026-05-02T10:52:42.886Z</time></trkpt><trkpt lat="43.2096278" lon="13.1716101"><ele>645.4000000000001</ele><time>2026-05-02T10:52:44.885Z</time></trkpt><trkpt lat="43.2097353" lon="13.1716197"><ele>641.2</ele><time>2026-05-02T10:52:46.886Z</time></trkpt><trkpt lat="43.2098313" lon="13.1716447"><ele>637.0</ele><time>2026-05-02T10:52:48.886Z</time></trkpt><trkpt lat="43.2099248" lon="13.1717043"><ele>635.0</ele><time>2026-05-02T10:52:50.886Z</time></trkpt><trkpt lat="43.2100059" lon="13.1717558"><ele>633.0</ele><time>2026-05-02T10:52:52.885Z</time></trkpt><trkpt lat="43.2101063" lon="13.1718031"><ele>631.0</ele><time>2026-05-02T10:52:54.885Z</time></trkpt><trkpt lat="43.2102208" lon="13.171847"><ele>629.0</ele><time>2026-05-02T10:52:56.885Z</time></trkpt><trkpt lat="43.2103141" lon="13.1718782"><ele>627.0</ele><time>2026-05-02T10:52:58.886Z</time></trkpt><trkpt lat="43.2103934" lon="13.1718769"><ele>627.0</ele><time>2026-05-02T10:53:00.886Z</time></trkpt><trkpt lat="43.210502" lon="13.1718787"><ele>627.0</ele><time>2026-05-02T10:53:02.885Z</time></trkpt><trkpt lat="43.2106159" lon="13.1718803"><ele>627.0</ele><time>2026-05-02T10:53:04.885Z</time></trkpt><trkpt lat="43.2107244" lon="13.1718652"><ele>627.0</ele><time>2026-05-02T10:53:06.886Z</time></trkpt><trkpt lat="43.2108375" lon="13.1718311"><ele>627.0</ele><time>2026-05-02T10:53:08.886Z</time></trkpt><trkpt lat="43.2108966" lon="13.1717979"><ele>628.6</ele><time>2026-05-02T10:53:09.886Z</time></trkpt><trkpt lat="43.2109532" lon="13.1717482"><ele>630.2</ele><time>2026-05-02T10:53:10.886Z</time></trkpt><trkpt lat="43.2110381" lon="13.171655"><ele>631.8</ele><time>2026-05-02T10:53:12.886Z</time></trkpt><trkpt lat="43.2110957" lon="13.1716036"><ele>633.4</ele><time>2026-05-02T10:53:14.886Z</time></trkpt><trkpt lat="43.2111797" lon="13.1715136"><ele>635.0</ele><time>2026-05-02T10:53:16.886Z</time></trkpt><trkpt lat="43.2112536" lon="13.1713853"><ele>634.9999999999999</ele><time>2026-05-02T10:53:18.885Z</time></trkpt><trkpt lat="43.2113077" lon="13.1713203"><ele>635.0</ele><time>2026-05-02T10:53:19.885Z</time></trkpt><trkpt lat="43.2113736" lon="13.1712689"><ele>635.0</ele><time>2026-05-02T10:53:20.886Z</time></trkpt><trkpt lat="43.2114389" lon="13.1712346"><ele>635.0</ele><time>2026-05-02T10:53:21.886Z</time></trkpt><trkpt lat="43.2115096" lon="13.1712019"><ele>635.0</ele><time>2026-05-02T10:53:22.885Z</time></trkpt><trkpt lat="43.2115773" lon="13.1711834"><ele>634.9999999999999</ele><time>2026-05-02T10:53:23.885Z</time></trkpt><trkpt lat="43.2116421" lon="13.1711655"><ele>635.0</ele><time>2026-05-02T10:53:24.886Z</time></trkpt><trkpt lat="43.2117112" lon="13.171154"><ele>632.5714285714286</ele><time>2026-05-02T10:53:25.885Z</time></trkpt><trkpt lat="43.2117847" lon="13.1711463"><ele>630.1428571428571</ele><time>2026-05-02T10:53:26.886Z</time></trkpt><trkpt lat="43.2118491" lon="13.1711359"><ele>627.7142857142858</ele><time>2026-05-02T10:53:27.886Z</time></trkpt><trkpt lat="43.211913" lon="13.171124"><ele>625.2857142857142</ele><time>2026-05-02T10:53:28.886Z</time></trkpt><trkpt lat="43.2119825" lon="13.1711096"><ele>622.8571428571429</ele><time>2026-05-02T10:53:29.885Z</time></trkpt><trkpt lat="43.2120616" lon="13.1710915"><ele>620.4285714285714</ele><time>2026-05-02T10:53:30.886Z</time></trkpt><trkpt lat="43.2121388" lon="13.1710758"><ele>618.0</ele><time>2026-05-02T10:53:31.885Z</time></trkpt><trkpt lat="43.2122125" lon="13.1710473"><ele>618.0</ele><time>2026-05-02T10:53:32.886Z</time></trkpt><trkpt lat="43.2122859" lon="13.171009"><ele>618.0</ele><time>2026-05-02T10:53:33.885Z</time></trkpt><trkpt lat="43.212358" lon="13.1709687"><ele>618.0</ele><time>2026-05-02T10:53:34.886Z</time></trkpt><trkpt lat="43.2124263" lon="13.1709185"><ele>618.0</ele><time>2026-05-02T10:53:35.886Z</time></trkpt><trkpt lat="43.2124937" lon="13.1708567"><ele>618.0</ele><time>2026-05-02T10:53:36.886Z</time></trkpt><trkpt lat="43.2125666" lon="13.1707915"><ele>618.0</ele><time>2026-05-02T10:53:37.885Z</time></trkpt><trkpt lat="43.2126294" lon="13.1707231"><ele>616.0</ele><time>2026-05-02T10:53:38.886Z</time></trkpt><trkpt lat="43.2126974" lon="13.170649"><ele>614.0</ele><time>2026-05-02T10:53:39.885Z</time></trkpt><trkpt lat="43.2127682" lon="13.1705698"><ele>612.0</ele><time>2026-05-02T10:53:40.886Z</time></trkpt><trkpt lat="43.212843" lon="13.1704898"><ele>610.0</ele><time>2026-05-02T10:53:41.885Z</time></trkpt><trkpt lat="43.212917" lon="13.1704185"><ele>608.0</ele><time>2026-05-02T10:53:42.886Z</time></trkpt><trkpt lat="43.212993" lon="13.170342"><ele>608.0</ele><time>2026-05-02T10:53:43.886Z</time></trkpt><trkpt lat="43.2130661" lon="13.170259"><ele>608.0</ele><time>2026-05-02T10:53:44.886Z</time></trkpt><trkpt lat="43.2131362" lon="13.1701775"><ele>608.0</ele><time>2026-05-02T10:53:45.885Z</time></trkpt><trkpt lat="43.2132081" lon="13.1700977"><ele>608.0</ele><time>2026-05-02T10:53:46.886Z</time></trkpt><trkpt lat="43.2132818" lon="13.1700218"><ele>608.0</ele><time>2026-05-02T10:53:47.886Z</time></trkpt><trkpt lat="43.2133494" lon="13.1699483"><ele>606.0</ele><time>2026-05-02T10:53:48.885Z</time></trkpt><trkpt lat="43.2134092" lon="13.1698847"><ele>604.0</ele><time>2026-05-02T10:53:49.886Z</time></trkpt><trkpt lat="43.2134689" lon="13.1698264"><ele>602.0</ele><time>2026-05-02T10:53:50.886Z</time></trkpt><trkpt lat="43.2135256" lon="13.1697763"><ele>600.0</ele><time>2026-05-02T10:53:51.885Z</time></trkpt><trkpt lat="43.2136207" lon="13.169695"><ele>598.0</ele><time>2026-05-02T10:53:53.885Z</time></trkpt><trkpt lat="43.2136899" lon="13.1696133"><ele>596.0</ele><time>2026-05-02T10:53:55.886Z</time></trkpt><trkpt lat="43.2137521" lon="13.1695192"><ele>596.0</ele><time>2026-05-02T10:53:57.886Z</time></trkpt><trkpt lat="43.2138304" lon="13.1693833"><ele>596.0</ele><time>2026-05-02T10:53:59.886Z</time></trkpt><trkpt lat="43.2138785" lon="13.1692732"><ele>596.0</ele><time>2026-05-02T10:54:00.886Z</time></trkpt><trkpt lat="43.2139233" lon="13.1691569"><ele>596.0</ele><time>2026-05-02T10:54:01.885Z</time></trkpt><trkpt lat="43.2139705" lon="13.1690541"><ele>596.0</ele><time>2026-05-02T10:54:02.885Z</time></trkpt><trkpt lat="43.2139974" lon="13.1689728"><ele>594.8333333333333</ele><time>2026-05-02T10:54:03.885Z</time></trkpt><trkpt lat="43.2140292" lon="13.1688974"><ele>593.6666666666666</ele><time>2026-05-02T10:54:04.885Z</time></trkpt><trkpt lat="43.214066" lon="13.1688044"><ele>592.5</ele><time>2026-05-02T10:54:05.886Z</time></trkpt><trkpt lat="43.2141079" lon="13.1687073"><ele>591.3333333333334</ele><time>2026-05-02T10:54:06.886Z</time></trkpt><trkpt lat="43.2141444" lon="13.1685711"><ele>590.1666666666667</ele><time>2026-05-02T10:54:08.886Z</time></trkpt><trkpt lat="43.2141126" lon="13.1684382"><ele>589.0</ele><time>2026-05-02T10:54:10.886Z</time></trkpt><trkpt lat="43.2140651" lon="13.1683538"><ele>589.0</ele><time>2026-05-02T10:54:11.886Z</time></trkpt><trkpt lat="43.2140118" lon="13.1682628"><ele>589.0</ele><time>2026-05-02T10:54:12.885Z</time></trkpt><trkpt lat="43.2139553" lon="13.1681748"><ele>589.0</ele><time>2026-05-02T10:54:13.884Z</time></trkpt><trkpt lat="43.2138968" lon="13.1680817"><ele>589.0</ele><time>2026-05-02T10:54:14.885Z</time></trkpt><trkpt lat="43.2138242" lon="13.1679888"><ele>589.0</ele><time>2026-05-02T10:54:15.886Z</time></trkpt><trkpt lat="43.2137538" lon="13.1679063"><ele>592.5</ele><time>2026-05-02T10:54:16.884Z</time></trkpt><trkpt lat="43.2137045" lon="13.1678391"><ele>596.0</ele><time>2026-05-02T10:54:17.885Z</time></trkpt><trkpt lat="43.2136369" lon="13.1677327"><ele>599.5</ele><time>2026-05-02T10:54:19.886Z</time></trkpt><trkpt lat="43.2135855" lon="13.1676636"><ele>603.0</ele><time>2026-05-02T10:54:21.886Z</time></trkpt><trkpt lat="43.2135792" lon="13.1675716"><ele>606.5</ele><time>2026-05-02T10:54:24.885Z</time></trkpt><trkpt lat="43.2136582" lon="13.1675729"><ele>610.0</ele><time>2026-05-02T10:54:27.886Z</time></trkpt><trkpt lat="43.2137287" lon="13.1676105"><ele>610.0</ele><time>2026-05-02T10:54:29.886Z</time></trkpt><trkpt lat="43.2138403" lon="13.1676446"><ele>610.0</ele><time>2026-05-02T10:54:31.886Z</time></trkpt><trkpt lat="43.2139387" lon="13.1676585"><ele>610.0</ele><time>2026-05-02T10:54:33.885Z</time></trkpt><trkpt lat="43.2140238" lon="13.1676727"><ele>610.0</ele><time>2026-05-02T10:54:35.885Z</time></trkpt><trkpt lat="43.214093" lon="13.1676953"><ele>610.0</ele><time>2026-05-02T10:54:38.886Z</time></trkpt><trkpt lat="43.2141714" lon="13.1677035"><ele>610.0</ele><time>2026-05-02T10:54:55.886Z</time></trkpt><trkpt lat="43.2142458" lon="13.1676938"><ele>607.0</ele><time>2026-05-02T10:54:58.886Z</time></trkpt><trkpt lat="43.2143181" lon="13.1676708"><ele>604.0</ele><time>2026-05-02T10:55:01.884Z</time></trkpt><trkpt lat="43.2143874" lon="13.1676689"><ele>601.0</ele><time>2026-05-02T10:55:04.832Z</time></trkpt><trkpt lat="43.2144709" lon="13.1676935"><ele>598.0</ele><time>2026-05-02T10:55:07.885Z</time></trkpt><trkpt lat="43.2145477" lon="13.1677162"><ele>595.0</ele><time>2026-05-02T10:55:10.796Z</time></trkpt><trkpt lat="43.2146117" lon="13.1677189"><ele>592.0</ele><time>2026-05-02T10:55:13.886Z</time></trkpt><trkpt lat="43.2146812" lon="13.167709"><ele>589.0</ele><time>2026-05-02T10:55:17.884Z</time></trkpt><trkpt lat="43.2147656" lon="13.1677289"><ele>585.0</ele><time>2026-05-02T10:55:21.853Z</time></trkpt><trkpt lat="43.2148387" lon="13.1677177"><ele>581.0</ele><time>2026-05-02T10:55:24.792Z</time></trkpt><trkpt lat="43.2149029" lon="13.1677001"><ele>577.0</ele><time>2026-05-02T10:55:27.885Z</time></trkpt><trkpt lat="43.2149916" lon="13.1677269"><ele>573.0</ele><time>2026-05-02T10:56:26.884Z</time></trkpt><trkpt lat="43.2150747" lon="13.1677414"><ele>569.0</ele><time>2026-05-02T10:56:29.884Z</time></trkpt><trkpt lat="43.2151386" lon="13.167749"><ele>565.0</ele><time>2026-05-02T10:56:33.735Z</time></trkpt><trkpt lat="43.2152081" lon="13.1677322"><ele>561.0</ele><time>2026-05-02T10:57:15.885Z</time></trkpt><trkpt lat="43.2152737" lon="13.1677158"><ele>561.0</ele><time>2026-05-02T10:57:23.886Z</time></trkpt><trkpt lat="43.215338" lon="13.1676946"><ele>561.0</ele><time>2026-05-02T10:57:31.886Z</time></trkpt><trkpt lat="43.2153991" lon="13.167665"><ele>561.0</ele><time>2026-05-02T10:57:44.884Z</time></trkpt><trkpt lat="43.2154665" lon="13.1676336"><ele>561.0</ele><time>2026-05-02T10:58:08.885Z</time></trkpt><trkpt lat="43.215511" lon="13.1675716"><ele>561.0</ele><time>2026-05-02T10:58:16.885Z</time></trkpt><trkpt lat="43.2155518" lon="13.1675018"><ele>561.0</ele><time>2026-05-02T10:59:55.884Z</time></trkpt><trkpt lat="43.2155998" lon="13.1674221"><ele>561.0</ele><time>2026-05-02T11:00:07.885Z</time></trkpt><trkpt lat="43.2156458" lon="13.1673406"><ele>555.1428571428571</ele><time>2026-05-02T11:00:13.884Z</time></trkpt><trkpt lat="43.215682" lon="13.1672676"><ele>549.2857142857142</ele><time>2026-05-02T11:00:17.884Z</time></trkpt><trkpt lat="43.2157286" lon="13.1671923"><ele>543.4285714285714</ele><time>2026-05-02T11:00:21.885Z</time></trkpt><trkpt lat="43.2157936" lon="13.1671272"><ele>537.5714285714286</ele><time>2026-05-02T11:00:25.885Z</time></trkpt><trkpt lat="43.2158637" lon="13.1670787"><ele>531.7142857142858</ele><time>2026-05-02T11:00:29.885Z</time></trkpt><trkpt lat="43.2158479" lon="13.1669948"><ele>525.8571428571429</ele><time>2026-05-02T11:00:37.883Z</time></trkpt><trkpt lat="43.2157855" lon="13.1669151"><ele>520.0</ele><time>2026-05-02T11:00:41.885Z</time></trkpt><trkpt lat="43.2157135" lon="13.1668515"><ele>520.0000000000001</ele><time>2026-05-02T11:00:44.885Z</time></trkpt><trkpt lat="43.2156766" lon="13.1667752"><ele>520.0</ele><time>2026-05-02T11:00:47.886Z</time></trkpt><trkpt lat="43.215664" lon="13.166678"><ele>520.0</ele><time>2026-05-02T11:00:52.884Z</time></trkpt><trkpt lat="43.215613" lon="13.1666257"><ele>520.0</ele><time>2026-05-02T11:00:54.884Z</time></trkpt><trkpt lat="43.2155629" lon="13.1665572"><ele>520.0</ele><time>2026-05-02T11:00:56.885Z</time></trkpt><trkpt lat="43.2155281" lon="13.166484"><ele>520.0000000000001</ele><time>2026-05-02T11:00:58.884Z</time></trkpt><trkpt lat="43.2155005" lon="13.1663995"><ele>520.0</ele><time>2026-05-02T11:01:00.885Z</time></trkpt><trkpt lat="43.2154623" lon="13.1662789"><ele>519.6666666666667</ele><time>2026-05-02T11:01:03.885Z</time></trkpt><trkpt lat="43.2154381" lon="13.1661934"><ele>519.3333333333334</ele><time>2026-05-02T11:01:05.886Z</time></trkpt><trkpt lat="43.2154069" lon="13.1661146"><ele>519.0</ele><time>2026-05-02T11:01:08.885Z</time></trkpt><trkpt lat="43.2154565" lon="13.1660439"><ele>518.6666666666666</ele><time>2026-05-02T11:01:18.838Z</time></trkpt><trkpt lat="43.2155348" lon="13.1660704"><ele>518.3333333333333</ele><time>2026-05-02T11:01:20.885Z</time></trkpt><trkpt lat="43.2156194" lon="13.1660915"><ele>518.0</ele><time>2026-05-02T11:01:22.885Z</time></trkpt><trkpt lat="43.2157003" lon="13.1660498"><ele>514.8</ele><time>2026-05-02T11:01:23.884Z</time></trkpt><trkpt lat="43.2157651" lon="13.1660363"><ele>511.59999999999997</ele><time>2026-05-02T11:01:24.884Z</time></trkpt><trkpt lat="43.2158755" lon="13.1660049"><ele>508.40000000000003</ele><time>2026-05-02T11:01:26.886Z</time></trkpt><trkpt lat="43.2159631" lon="13.1659637"><ele>505.20000000000005</ele><time>2026-05-02T11:01:28.884Z</time></trkpt><trkpt lat="43.2160596" lon="13.1659108"><ele>502.0</ele><time>2026-05-02T11:01:30.885Z</time></trkpt><trkpt lat="43.2161612" lon="13.1658839"><ele>502.0</ele><time>2026-05-02T11:01:32.884Z</time></trkpt><trkpt lat="43.216274" lon="13.1659241"><ele>502.00000000000006</ele><time>2026-05-02T11:01:34.884Z</time></trkpt><trkpt lat="43.2163551" lon="13.1659327"><ele>502.00000000000006</ele><time>2026-05-02T11:01:37.884Z</time></trkpt><trkpt lat="43.2164439" lon="13.1659045"><ele>502.0</ele><time>2026-05-02T11:01:39.805Z</time></trkpt><trkpt lat="43.2165096" lon="13.1658864"><ele>502.0</ele><time>2026-05-02T11:01:40.885Z</time></trkpt><trkpt lat="43.2166251" lon="13.1658514"><ele>498.40000000000003</ele><time>2026-05-02T11:01:42.885Z</time></trkpt><trkpt lat="43.2167323" lon="13.1658371"><ele>494.80000000000007</ele><time>2026-05-02T11:01:44.885Z</time></trkpt><trkpt lat="43.2168367" lon="13.1658356"><ele>491.2</ele><time>2026-05-02T11:01:46.885Z</time></trkpt><trkpt lat="43.2169536" lon="13.1658328"><ele>487.6</ele><time>2026-05-02T11:01:48.886Z</time></trkpt><trkpt lat="43.2170169" lon="13.1658258"><ele>484.0</ele><time>2026-05-02T11:01:49.885Z</time></trkpt><trkpt lat="43.2171223" lon="13.1658003"><ele>484.0</ele><time>2026-05-02T11:01:51.885Z</time></trkpt><trkpt lat="43.2171789" lon="13.1657594"><ele>483.99999999999994</ele><time>2026-05-02T11:01:53.885Z</time></trkpt><trkpt lat="43.2172701" lon="13.1657439"><ele>484.0</ele><time>2026-05-02T11:01:55.885Z</time></trkpt><trkpt lat="43.2173525" lon="13.1657379"><ele>484.0</ele><time>2026-05-02T11:01:57.884Z</time></trkpt><trkpt lat="43.2174179" lon="13.1657274"><ele>483.99999999999994</ele><time>2026-05-02T11:01:59.885Z</time></trkpt><trkpt lat="43.2174819" lon="13.1657063"><ele>484.0</ele><time>2026-05-02T11:02:14.885Z</time></trkpt><trkpt lat="43.2175485" lon="13.1656862"><ele>484.0</ele><time>2026-05-02T11:02:16.884Z</time></trkpt><trkpt lat="43.217616" lon="13.1656708"><ele>477.6666666666667</ele><time>2026-05-02T11:02:18.885Z</time></trkpt><trkpt lat="43.217685" lon="13.1656616"><ele>471.33333333333337</ele><time>2026-05-02T11:02:20.885Z</time></trkpt><trkpt lat="43.2177566" lon="13.1656533"><ele>465.0</ele><time>2026-05-02T11:02:22.885Z</time></trkpt><trkpt lat="43.2178365" lon="13.1656366"><ele>458.66666666666663</ele><time>2026-05-02T11:02:24.884Z</time></trkpt><trkpt lat="43.217908" lon="13.1656077"><ele>452.3333333333333</ele><time>2026-05-02T11:02:26.884Z</time></trkpt><trkpt lat="43.2179908" lon="13.1655782"><ele>446.0</ele><time>2026-05-02T11:02:29.884Z</time></trkpt><trkpt lat="43.2180643" lon="13.1656031"><ele>445.99999999999994</ele><time>2026-05-02T11:02:31.884Z</time></trkpt><trkpt lat="43.2181288" lon="13.1656177"><ele>446.0</ele><time>2026-05-02T11:02:33.883Z</time></trkpt><trkpt lat="43.2181929" lon="13.1656048"><ele>446.0</ele><time>2026-05-02T11:02:35.885Z</time></trkpt><trkpt lat="43.2182558" lon="13.1655764"><ele>446.0</ele><time>2026-05-02T11:02:37.885Z</time></trkpt><trkpt lat="43.218346" lon="13.1655304"><ele>445.99999999999994</ele><time>2026-05-02T11:02:39.885Z</time></trkpt><trkpt lat="43.2184557" lon="13.1654821"><ele>446.0</ele><time>2026-05-02T11:02:41.886Z</time></trkpt><trkpt lat="43.2185747" lon="13.1654513"><ele>444.4</ele><time>2026-05-02T11:02:43.885Z</time></trkpt><trkpt lat="43.218683" lon="13.1654306"><ele>442.8</ele><time>2026-05-02T11:02:45.884Z</time></trkpt><trkpt lat="43.2187833" lon="13.165426"><ele>441.19999999999993</ele><time>2026-05-02T11:02:47.885Z</time></trkpt><trkpt lat="43.2188847" lon="13.1654326"><ele>439.59999999999997</ele><time>2026-05-02T11:02:49.885Z</time></trkpt><trkpt lat="43.2190026" lon="13.1654358"><ele>438.0</ele><time>2026-05-02T11:02:51.885Z</time></trkpt><trkpt lat="43.2190662" lon="13.1654255"><ele>437.79999999999995</ele><time>2026-05-02T11:02:52.884Z</time></trkpt><trkpt lat="43.2191859" lon="13.1653908"><ele>437.59999999999997</ele><time>2026-05-02T11:02:54.884Z</time></trkpt><trkpt lat="43.2192991" lon="13.1653414"><ele>437.40000000000003</ele><time>2026-05-02T11:02:56.884Z</time></trkpt><trkpt lat="43.2193857" lon="13.1653298"><ele>437.20000000000005</ele><time>2026-05-02T11:02:58.884Z</time></trkpt><trkpt lat="43.2194867" lon="13.1653197"><ele>437.0</ele><time>2026-05-02T11:03:00.885Z</time></trkpt><trkpt lat="43.2195527" lon="13.1653175"><ele>437.0</ele><time>2026-05-02T11:03:01.884Z</time></trkpt><trkpt lat="43.2196164" lon="13.1653196"><ele>437.0</ele><time>2026-05-02T11:03:02.884Z</time></trkpt><trkpt lat="43.2197316" lon="13.1653261"><ele>437.0</ele><time>2026-05-02T11:03:04.885Z</time></trkpt></trkseg></trk></gpx>